<?xml version="1.0" encoding="UTF-8" standalone="no" ?>
<gpx xmlns="http://www.topografix.com/GPX/1/1" xmlns:xsi="http://www.w3.org/2001/XMLSchema-instance" xsi:schemaLocation="http://www.topografix.com/GPX/1/1 http://www.topografix.com/GPX/1/1/gpx.xsd" version="1.1" creator="VisuGPX - https://www.visugpx.com">
  <metadata>
    <name>MP50</name>
  </metadata>
  <trk>
    <name><![CDATA[mons en pevele 50]]></name>
    <trkseg>
      <trkpt lat="50.50361" lon="3.46454">
        <ele>20.881719</ele>
        <time>2021-11-04T12:10:34.674Z</time>
      </trkpt>
      <trkpt lat="50.50361" lon="3.46454">
        <ele>20.881719</ele>
        <time>2021-11-04T12:10:34.678Z</time>
      </trkpt>
      <trkpt lat="50.5034" lon="3.46438">
        <ele>20.881719</ele>
        <time>2021-11-04T12:10:38.232Z</time>
      </trkpt>
      <trkpt lat="50.50316" lon="3.46422">
        <ele>20.881719</ele>
        <time>2021-11-04T12:10:42.244Z</time>
      </trkpt>
      <trkpt lat="50.50313" lon="3.46411">
        <ele>20.881719</ele>
        <time>2021-11-04T12:10:43.320Z</time>
      </trkpt>
      <trkpt lat="50.50317" lon="3.46374">
        <ele>20.881719</ele>
        <time>2021-11-04T12:10:46.860Z</time>
      </trkpt>
      <trkpt lat="50.50325" lon="3.46304">
        <ele>20.786395</ele>
        <time>2021-11-04T12:10:53.301Z</time>
      </trkpt>
      <trkpt lat="50.50335" lon="3.46236">
        <ele>20.669055</ele>
        <time>2021-11-04T12:10:59.594Z</time>
      </trkpt>
      <trkpt lat="50.50345" lon="3.46155">
        <ele>20.531705</ele>
        <time>2021-11-04T12:11:06.946Z</time>
      </trkpt>
      <trkpt lat="50.50361" lon="3.46074">
        <ele>20.378394</ele>
        <time>2021-11-04T12:11:14.197Z</time>
      </trkpt>
      <trkpt lat="50.5041" lon="3.45851">
        <ele>19.728648</ele>
        <time>2021-11-04T12:11:34.191Z</time>
      </trkpt>
      <trkpt lat="50.50424" lon="3.45772">
        <ele>19.49883</ele>
        <time>2021-11-04T12:11:41.228Z</time>
      </trkpt>
      <trkpt lat="50.50433" lon="3.4572">
        <ele>19.344314</ele>
        <time>2021-11-04T12:11:45.904Z</time>
      </trkpt>
      <trkpt lat="50.50436" lon="3.45642">
        <ele>19.123278</ele>
        <time>2021-11-04T12:11:52.662Z</time>
      </trkpt>
      <trkpt lat="50.50437" lon="3.45631">
        <ele>19.091848</ele>
        <time>2021-11-04T12:11:53.493Z</time>
      </trkpt>
      <trkpt lat="50.5044" lon="3.45588">
        <ele>18.96757</ele>
        <time>2021-11-04T12:11:57.437Z</time>
      </trkpt>
      <trkpt lat="50.50441" lon="3.45573">
        <ele>18.923784</ele>
        <time>2021-11-04T12:11:58.627Z</time>
      </trkpt>
      <trkpt lat="50.50441" lon="3.45568">
        <ele>18.909156</ele>
        <time>2021-11-04T12:11:59.070Z</time>
      </trkpt>
      <trkpt lat="50.50443" lon="3.45552">
        <ele>18.862619</ele>
        <time>2021-11-04T12:12:00.498Z</time>
      </trkpt>
      <trkpt lat="50.50448" lon="3.45508">
        <ele>18.716915</ele>
        <time>2021-11-04T12:12:04.039Z</time>
      </trkpt>
      <trkpt lat="50.50447" lon="3.4549">
        <ele>18.652094</ele>
        <time>2021-11-04T12:12:05.618Z</time>
      </trkpt>
      <trkpt lat="50.50444" lon="3.45482">
        <ele>18.61901</ele>
        <time>2021-11-04T12:12:06.421Z</time>
      </trkpt>
      <trkpt lat="50.50416" lon="3.45464">
        <ele>18.45552</ele>
        <time>2021-11-04T12:12:10.293Z</time>
      </trkpt>
      <trkpt lat="50.50407" lon="3.45459">
        <ele>18.400703</ele>
        <time>2021-11-04T12:12:11.628Z</time>
      </trkpt>
      <trkpt lat="50.50355" lon="3.45425">
        <ele>18.092979</ele>
        <time>2021-11-04T12:12:19.096Z</time>
      </trkpt>
      <trkpt lat="50.50341" lon="3.45413">
        <ele>18.005079</ele>
        <time>2021-11-04T12:12:21.271Z</time>
      </trkpt>
      <trkpt lat="50.5031" lon="3.45386">
        <ele>17.824962</ele>
        <time>2021-11-04T12:12:25.925Z</time>
      </trkpt>
      <trkpt lat="50.50229" lon="3.45322">
        <ele>17.578575</ele>
        <time>2021-11-04T12:12:37.357Z</time>
      </trkpt>
      <trkpt lat="50.50193" lon="3.45294">
        <ele>17.471649</ele>
        <time>2021-11-04T12:12:43.365Z</time>
      </trkpt>
      <trkpt lat="50.50142" lon="3.45258">
        <ele>17.356878</ele>
        <time>2021-11-04T12:12:52.640Z</time>
      </trkpt>
      <trkpt lat="50.5013" lon="3.45249">
        <ele>17.362253</ele>
        <time>2021-11-04T12:12:54.655Z</time>
      </trkpt>
      <trkpt lat="50.50092" lon="3.45227">
        <ele>17.378572</ele>
        <time>2021-11-04T12:13:01.157Z</time>
      </trkpt>
      <trkpt lat="50.50084" lon="3.45223">
        <ele>17.382018</ele>
        <time>2021-11-04T12:13:02.475Z</time>
      </trkpt>
      <trkpt lat="50.50052" lon="3.45203">
        <ele>17.396082</ele>
        <time>2021-11-04T12:13:07.461Z</time>
      </trkpt>
      <trkpt lat="50.50051" lon="3.45202">
        <ele>17.396757</ele>
        <time>2021-11-04T12:13:07.709Z</time>
      </trkpt>
      <trkpt lat="50.50044" lon="3.45199">
        <ele>17.399613</ele>
        <time>2021-11-04T12:13:08.733Z</time>
      </trkpt>
      <trkpt lat="50.50005" lon="3.45189">
        <ele>17.415718</ele>
        <time>2021-11-04T12:13:14.339Z</time>
      </trkpt>
      <trkpt lat="50.49999" lon="3.45188">
        <ele>17.418306</ele>
        <time>2021-11-04T12:13:15.207Z</time>
      </trkpt>
      <trkpt lat="50.49974" lon="3.45177">
        <ele>17.367246</ele>
        <time>2021-11-04T12:13:18.990Z</time>
      </trkpt>
      <trkpt lat="50.49958" lon="3.45159">
        <ele>17.225112</ele>
        <time>2021-11-04T12:13:21.798Z</time>
      </trkpt>
      <trkpt lat="50.49943" lon="3.45125">
        <ele>17.04013</ele>
        <time>2021-11-04T12:13:25.445Z</time>
      </trkpt>
      <trkpt lat="50.49935" lon="3.45106">
        <ele>16.934134</ele>
        <time>2021-11-04T12:13:27.417Z</time>
      </trkpt>
      <trkpt lat="50.49874" lon="3.44964">
        <ele>16.162469</ele>
        <time>2021-11-04T12:13:40.624Z</time>
      </trkpt>
      <trkpt lat="50.49867" lon="3.44946">
        <ele>16.111305</ele>
        <time>2021-11-04T12:13:42.223Z</time>
      </trkpt>
      <trkpt lat="50.49864" lon="3.44939">
        <ele>16.094231</ele>
        <time>2021-11-04T12:13:42.862Z</time>
      </trkpt>
      <trkpt lat="50.49851" lon="3.44909">
        <ele>16.020425</ele>
        <time>2021-11-04T12:13:45.739Z</time>
      </trkpt>
      <trkpt lat="50.49844" lon="3.44889">
        <ele>15.97205</ele>
        <time>2021-11-04T12:13:47.634Z</time>
      </trkpt>
      <trkpt lat="50.49799" lon="3.44762">
        <ele>15.676001</ele>
        <time>2021-11-04T12:14:00.623Z</time>
      </trkpt>
      <trkpt lat="50.49798" lon="3.44759">
        <ele>15.669441</ele>
        <time>2021-11-04T12:14:00.868Z</time>
      </trkpt>
      <trkpt lat="50.49776" lon="3.4469">
        <ele>15.725038</ele>
        <time>2021-11-04T12:14:08.849Z</time>
      </trkpt>
      <trkpt lat="50.49754" lon="3.44626">
        <ele>16.109239</ele>
        <time>2021-11-04T12:14:16.568Z</time>
      </trkpt>
      <trkpt lat="50.49735" lon="3.44569">
        <ele>16.44999</ele>
        <time>2021-11-04T12:14:24.233Z</time>
      </trkpt>
      <trkpt lat="50.49687" lon="3.44433">
        <ele>17.226636</ele>
        <time>2021-11-04T12:14:43.789Z</time>
      </trkpt>
      <trkpt lat="50.49674" lon="3.44405">
        <ele>17.368533</ele>
        <time>2021-11-04T12:14:47.788Z</time>
      </trkpt>
      <trkpt lat="50.49672" lon="3.44401">
        <ele>17.389145</ele>
        <time>2021-11-04T12:14:48.673Z</time>
      </trkpt>
      <trkpt lat="50.49669" lon="3.44396">
        <ele>17.418195</ele>
        <time>2021-11-04T12:14:49.484Z</time>
      </trkpt>
      <trkpt lat="50.49663" lon="3.44393">
        <ele>17.456761</ele>
        <time>2021-11-04T12:14:50.533Z</time>
      </trkpt>
      <trkpt lat="50.49648" lon="3.44404">
        <ele>17.561966</ele>
        <time>2021-11-04T12:14:53.518Z</time>
      </trkpt>
      <trkpt lat="50.4959" lon="3.44475">
        <ele>18.037957</ele>
        <time>2021-11-04T12:15:06.114Z</time>
      </trkpt>
      <trkpt lat="50.49562" lon="3.44503">
        <ele>18.217353</ele>
        <time>2021-11-04T12:15:11.170Z</time>
      </trkpt>
      <trkpt lat="50.49544" lon="3.44521">
        <ele>18.182383</ele>
        <time>2021-11-04T12:15:14.240Z</time>
      </trkpt>
      <trkpt lat="50.49491" lon="3.44561">
        <ele>18.086852</ele>
        <time>2021-11-04T12:15:22.590Z</time>
      </trkpt>
      <trkpt lat="50.49477" lon="3.44573">
        <ele>18.060895</ele>
        <time>2021-11-04T12:15:24.594Z</time>
      </trkpt>
      <trkpt lat="50.49426" lon="3.44654">
        <ele>17.942764</ele>
        <time>2021-11-04T12:15:34.519Z</time>
      </trkpt>
      <trkpt lat="50.4942" lon="3.44663">
        <ele>17.932469</ele>
        <time>2021-11-04T12:15:36.000Z</time>
      </trkpt>
      <trkpt lat="50.49368" lon="3.44744">
        <ele>18.064587</ele>
        <time>2021-11-04T12:15:46.850Z</time>
      </trkpt>
      <trkpt lat="50.49361" lon="3.44739">
        <ele>18.078253</ele>
        <time>2021-11-04T12:15:48.030Z</time>
      </trkpt>
      <trkpt lat="50.4934" lon="3.44731">
        <ele>18.116665</ele>
        <time>2021-11-04T12:15:51.410Z</time>
      </trkpt>
      <trkpt lat="50.49336" lon="3.44729">
        <ele>18.123816</ele>
        <time>2021-11-04T12:15:52.215Z</time>
      </trkpt>
      <trkpt lat="50.49301" lon="3.44709">
        <ele>18.191333</ele>
        <time>2021-11-04T12:15:58.492Z</time>
      </trkpt>
      <trkpt lat="50.49286" lon="3.44688">
        <ele>18.227614</ele>
        <time>2021-11-04T12:16:01.751Z</time>
      </trkpt>
      <trkpt lat="50.49254" lon="3.44618">
        <ele>18.325005</ele>
        <time>2021-11-04T12:16:10.532Z</time>
      </trkpt>
      <trkpt lat="50.49237" lon="3.44565">
        <ele>18.392501</ele>
        <time>2021-11-04T12:16:16.371Z</time>
      </trkpt>
      <trkpt lat="50.49227" lon="3.44464">
        <ele>18.507859</ele>
        <time>2021-11-04T12:16:26.196Z</time>
      </trkpt>
      <trkpt lat="50.49219" lon="3.44434">
        <ele>18.545604</ele>
        <time>2021-11-04T12:16:29.433Z</time>
      </trkpt>
      <trkpt lat="50.49167" lon="3.44324">
        <ele>18.904935</ele>
        <time>2021-11-04T12:16:42.907Z</time>
      </trkpt>
      <trkpt lat="50.49138" lon="3.44236">
        <ele>19.196181</ele>
        <time>2021-11-04T12:16:53.329Z</time>
      </trkpt>
      <trkpt lat="50.49109" lon="3.44183">
        <ele>19.404269</ele>
        <time>2021-11-04T12:17:01.381Z</time>
      </trkpt>
      <trkpt lat="50.49043" lon="3.44079">
        <ele>20.314461</ele>
        <time>2021-11-04T12:17:19.113Z</time>
      </trkpt>
      <trkpt lat="50.49034" lon="3.44057">
        <ele>20.477592</ele>
        <time>2021-11-04T12:17:22.337Z</time>
      </trkpt>
      <trkpt lat="50.48998" lon="3.43966">
        <ele>21.143817</ele>
        <time>2021-11-04T12:17:35.259Z</time>
      </trkpt>
      <trkpt lat="50.48981" lon="3.43937">
        <ele>21.250096</ele>
        <time>2021-11-04T12:17:39.848Z</time>
      </trkpt>
      <trkpt lat="50.48953" lon="3.43902">
        <ele>21.379415</ele>
        <time>2021-11-04T12:17:46.431Z</time>
      </trkpt>
      <trkpt lat="50.48944" lon="3.43891">
        <ele>21.42238</ele>
        <time>2021-11-04T12:17:48.500Z</time>
      </trkpt>
      <trkpt lat="50.48918" lon="3.43854">
        <ele>21.545841</ele>
        <time>2021-11-04T12:17:54.140Z</time>
      </trkpt>
      <trkpt lat="50.48907" lon="3.43837">
        <ele>21.603804</ele>
        <time>2021-11-04T12:17:56.619Z</time>
      </trkpt>
      <trkpt lat="50.48882" lon="3.43799">
        <ele>21.729092</ele>
        <time>2021-11-04T12:18:01.690Z</time>
      </trkpt>
      <trkpt lat="50.48863" lon="3.43769">
        <ele>21.807277</ele>
        <time>2021-11-04T12:18:05.409Z</time>
      </trkpt>
      <trkpt lat="50.48851" lon="3.4374">
        <ele>21.708723</ele>
        <time>2021-11-04T12:18:08.517Z</time>
      </trkpt>
      <trkpt lat="50.488" lon="3.4362">
        <ele>21.297642</ele>
        <time>2021-11-04T12:18:20.666Z</time>
      </trkpt>
      <trkpt lat="50.48793" lon="3.43602">
        <ele>21.237638</ele>
        <time>2021-11-04T12:18:22.482Z</time>
      </trkpt>
      <trkpt lat="50.48786" lon="3.43584">
        <ele>21.177157</ele>
        <time>2021-11-04T12:18:24.171Z</time>
      </trkpt>
      <trkpt lat="50.48774" lon="3.4355">
        <ele>21.066128</ele>
        <time>2021-11-04T12:18:27.428Z</time>
      </trkpt>
      <trkpt lat="50.48772" lon="3.4353">
        <ele>21.007243</ele>
        <time>2021-11-04T12:18:29.052Z</time>
      </trkpt>
      <trkpt lat="50.48777" lon="3.43508">
        <ele>20.938852</ele>
        <time>2021-11-04T12:18:30.935Z</time>
      </trkpt>
      <trkpt lat="50.48831" lon="3.43417">
        <ele>20.567776</ele>
        <time>2021-11-04T12:18:41.435Z</time>
      </trkpt>
      <trkpt lat="50.48835" lon="3.43392">
        <ele>20.487794</ele>
        <time>2021-11-04T12:18:43.788Z</time>
      </trkpt>
      <trkpt lat="50.48812" lon="3.43386">
        <ele>20.375175</ele>
        <time>2021-11-04T12:18:48.384Z</time>
      </trkpt>
      <trkpt lat="50.48714" lon="3.43358">
        <ele>19.879936</ele>
        <time>2021-11-04T12:19:06.992Z</time>
      </trkpt>
      <trkpt lat="50.48697" lon="3.4335">
        <ele>19.78701</ele>
        <time>2021-11-04T12:19:10.316Z</time>
      </trkpt>
      <trkpt lat="50.48614" lon="3.43307">
        <ele>19.33581</ele>
        <time>2021-11-04T12:19:26.275Z</time>
      </trkpt>
      <trkpt lat="50.48566" lon="3.43274">
        <ele>19.11985</ele>
        <time>2021-11-04T12:19:35.831Z</time>
      </trkpt>
      <trkpt lat="50.48516" lon="3.43213">
        <ele>18.902432</ele>
        <time>2021-11-04T12:19:47.539Z</time>
      </trkpt>
      <trkpt lat="50.48515" lon="3.43211">
        <ele>18.894429</ele>
        <time>2021-11-04T12:19:47.894Z</time>
      </trkpt>
      <trkpt lat="50.48503" lon="3.4319">
        <ele>18.832764</ele>
        <time>2021-11-04T12:19:51.532Z</time>
      </trkpt>
      <trkpt lat="50.48468" lon="3.43113">
        <ele>18.624659</ele>
        <time>2021-11-04T12:20:03.279Z</time>
      </trkpt>
      <trkpt lat="50.48438" lon="3.43022">
        <ele>18.568183</ele>
        <time>2021-11-04T12:20:16.307Z</time>
      </trkpt>
      <trkpt lat="50.48432" lon="3.43001">
        <ele>18.558079</ele>
        <time>2021-11-04T12:20:19.429Z</time>
      </trkpt>
      <trkpt lat="50.48426" lon="3.42977">
        <ele>18.547058</ele>
        <time>2021-11-04T12:20:22.738Z</time>
      </trkpt>
      <trkpt lat="50.48422" lon="3.42955">
        <ele>18.537322</ele>
        <time>2021-11-04T12:20:25.581Z</time>
      </trkpt>
      <trkpt lat="50.48404" lon="3.42822">
        <ele>18.495065</ele>
        <time>2021-11-04T12:20:43.005Z</time>
      </trkpt>
      <trkpt lat="50.48397" lon="3.4277">
        <ele>18.514528</ele>
        <time>2021-11-04T12:20:49.665Z</time>
      </trkpt>
      <trkpt lat="50.48391" lon="3.42733">
        <ele>18.528772</ele>
        <time>2021-11-04T12:20:53.067Z</time>
      </trkpt>
      <trkpt lat="50.48379" lon="3.42655">
        <ele>18.558399</ele>
        <time>2021-11-04T12:21:00.596Z</time>
      </trkpt>
      <trkpt lat="50.48364" lon="3.42603">
        <ele>18.579459</ele>
        <time>2021-11-04T12:21:06.289Z</time>
      </trkpt>
      <trkpt lat="50.48331" lon="3.42556">
        <ele>18.701117</ele>
        <time>2021-11-04T12:21:13.300Z</time>
      </trkpt>
      <trkpt lat="50.48298" lon="3.42533">
        <ele>18.877835</ele>
        <time>2021-11-04T12:21:19.319Z</time>
      </trkpt>
      <trkpt lat="50.48265" lon="3.42517">
        <ele>19.04853</ele>
        <time>2021-11-04T12:21:25.263Z</time>
      </trkpt>
      <trkpt lat="50.48243" lon="3.4251">
        <ele>19.15707</ele>
        <time>2021-11-04T12:21:29.110Z</time>
      </trkpt>
      <trkpt lat="50.48275" lon="3.42268">
        <ele>19.918218</ele>
        <time>2021-11-04T12:21:56.231Z</time>
      </trkpt>
      <trkpt lat="50.48282" lon="3.42212">
        <ele>20.090986</ele>
        <time>2021-11-04T12:22:02.089Z</time>
      </trkpt>
      <trkpt lat="50.48281" lon="3.42171">
        <ele>20.219073</ele>
        <time>2021-11-04T12:22:06.383Z</time>
      </trkpt>
      <trkpt lat="50.4827" lon="3.42108">
        <ele>20.362077</ele>
        <time>2021-11-04T12:22:13.095Z</time>
      </trkpt>
      <trkpt lat="50.48267" lon="3.42088">
        <ele>20.383965</ele>
        <time>2021-11-04T12:22:15.220Z</time>
      </trkpt>
      <trkpt lat="50.48265" lon="3.42058">
        <ele>20.414715</ele>
        <time>2021-11-04T12:22:18.227Z</time>
      </trkpt>
      <trkpt lat="50.48277" lon="3.41973">
        <ele>20.505073</ele>
        <time>2021-11-04T12:22:26.980Z</time>
      </trkpt>
      <trkpt lat="50.48335" lon="3.41557">
        <ele>20.678862</ele>
        <time>2021-11-04T12:23:07.517Z</time>
      </trkpt>
      <trkpt lat="50.48361" lon="3.41323">
        <ele>20.593043</ele>
        <time>2021-11-04T12:23:29.884Z</time>
      </trkpt>
      <trkpt lat="50.48367" lon="3.4127">
        <ele>20.450901</ele>
        <time>2021-11-04T12:23:34.583Z</time>
      </trkpt>
      <trkpt lat="50.48315" lon="3.41233">
        <ele>20.097647</ele>
        <time>2021-11-04T12:23:42.297Z</time>
      </trkpt>
      <trkpt lat="50.48216" lon="3.41154">
        <ele>19.420844</ele>
        <time>2021-11-04T12:23:56.209Z</time>
      </trkpt>
      <trkpt lat="50.48168" lon="3.41138">
        <ele>19.102672</ele>
        <time>2021-11-04T12:24:02.227Z</time>
      </trkpt>
      <trkpt lat="50.48073" lon="3.41064">
        <ele>18.406993</ele>
        <time>2021-11-04T12:24:15.950Z</time>
      </trkpt>
      <trkpt lat="50.47954" lon="3.40965">
        <ele>18.009141</ele>
        <time>2021-11-04T12:24:34.780Z</time>
      </trkpt>
      <trkpt lat="50.47935" lon="3.40945">
        <ele>17.951261</ele>
        <time>2021-11-04T12:24:37.999Z</time>
      </trkpt>
      <trkpt lat="50.47904" lon="3.40903">
        <ele>17.854401</ele>
        <time>2021-11-04T12:24:43.830Z</time>
      </trkpt>
      <trkpt lat="50.47888" lon="3.40869">
        <ele>17.820446</ele>
        <time>2021-11-04T12:24:47.752Z</time>
      </trkpt>
      <trkpt lat="50.47871" lon="3.40816">
        <ele>17.774158</ele>
        <time>2021-11-04T12:24:53.090Z</time>
      </trkpt>
      <trkpt lat="50.47867" lon="3.408">
        <ele>17.760564</ele>
        <time>2021-11-04T12:24:54.680Z</time>
      </trkpt>
      <trkpt lat="50.47856" lon="3.40762">
        <ele>17.727666</ele>
        <time>2021-11-04T12:24:58.425Z</time>
      </trkpt>
      <trkpt lat="50.47765" lon="3.40417">
        <ele>17.523686</ele>
        <time>2021-11-04T12:25:32.904Z</time>
      </trkpt>
      <trkpt lat="50.47744" lon="3.40344">
        <ele>17.497531</ele>
        <time>2021-11-04T12:25:40.544Z</time>
      </trkpt>
      <trkpt lat="50.47733" lon="3.40307">
        <ele>17.486131</ele>
        <time>2021-11-04T12:25:44.398Z</time>
      </trkpt>
      <trkpt lat="50.47729" lon="3.40294">
        <ele>17.482285</ele>
        <time>2021-11-04T12:25:45.704Z</time>
      </trkpt>
      <trkpt lat="50.47707" lon="3.40255">
        <ele>17.467623</ele>
        <time>2021-11-04T12:25:50.677Z</time>
      </trkpt>
      <trkpt lat="50.47702" lon="3.40246">
        <ele>17.464165</ele>
        <time>2021-11-04T12:25:51.844Z</time>
      </trkpt>
      <trkpt lat="50.47697" lon="3.4024">
        <ele>17.461744</ele>
        <time>2021-11-04T12:25:52.592Z</time>
      </trkpt>
      <trkpt lat="50.47655" lon="3.4018">
        <ele>17.436896</ele>
        <time>2021-11-04T12:26:01.033Z</time>
      </trkpt>
      <trkpt lat="50.47651" lon="3.40175">
        <ele>17.434674</ele>
        <time>2021-11-04T12:26:01.716Z</time>
      </trkpt>
      <trkpt lat="50.47603" lon="3.40105">
        <ele>17.38885</ele>
        <time>2021-11-04T12:26:10.804Z</time>
      </trkpt>
      <trkpt lat="50.47533" lon="3.40017">
        <ele>17.325987</ele>
        <time>2021-11-04T12:26:23.825Z</time>
      </trkpt>
      <trkpt lat="50.47497" lon="3.39983">
        <ele>17.384206</ele>
        <time>2021-11-04T12:26:30.430Z</time>
      </trkpt>
      <trkpt lat="50.47487" lon="3.39974">
        <ele>17.435935</ele>
        <time>2021-11-04T12:26:32.242Z</time>
      </trkpt>
      <trkpt lat="50.47446" lon="3.39936">
        <ele>17.641161</ele>
        <time>2021-11-04T12:26:39.899Z</time>
      </trkpt>
      <trkpt lat="50.4741" lon="3.39903">
        <ele>17.824957</ele>
        <time>2021-11-04T12:26:46.914Z</time>
      </trkpt>
      <trkpt lat="50.47386" lon="3.39879">
        <ele>17.947928</ele>
        <time>2021-11-04T12:26:51.671Z</time>
      </trkpt>
      <trkpt lat="50.47365" lon="3.39855">
        <ele>18.060164</ele>
        <time>2021-11-04T12:26:56.119Z</time>
      </trkpt>
      <trkpt lat="50.47325" lon="3.39806">
        <ele>18.40085</ele>
        <time>2021-11-04T12:27:05.295Z</time>
      </trkpt>
      <trkpt lat="50.47183" lon="3.39634">
        <ele>19.526731</ele>
        <time>2021-11-04T12:27:37.254Z</time>
      </trkpt>
      <trkpt lat="50.47176" lon="3.39626">
        <ele>19.555338</ele>
        <time>2021-11-04T12:27:38.645Z</time>
      </trkpt>
      <trkpt lat="50.47146" lon="3.39592">
        <ele>19.683398</ele>
        <time>2021-11-04T12:27:44.818Z</time>
      </trkpt>
      <trkpt lat="50.47131" lon="3.39575">
        <ele>19.746615</ele>
        <time>2021-11-04T12:27:47.820Z</time>
      </trkpt>
      <trkpt lat="50.47116" lon="3.39559">
        <ele>19.807395</ele>
        <time>2021-11-04T12:27:50.614Z</time>
      </trkpt>
      <trkpt lat="50.47074" lon="3.39512">
        <ele>19.985852</ele>
        <time>2021-11-04T12:27:58.405Z</time>
      </trkpt>
      <trkpt lat="50.47082" lon="3.39468">
        <ele>19.928504</ele>
        <time>2021-11-04T12:28:04.171Z</time>
      </trkpt>
      <trkpt lat="50.47083" lon="3.39461">
        <ele>19.916545</ele>
        <time>2021-11-04T12:28:05.075Z</time>
      </trkpt>
      <trkpt lat="50.47091" lon="3.39397">
        <ele>19.80953</ele>
        <time>2021-11-04T12:28:13.073Z</time>
      </trkpt>
      <trkpt lat="50.47094" lon="3.3938">
        <ele>19.780757</ele>
        <time>2021-11-04T12:28:15.201Z</time>
      </trkpt>
      <trkpt lat="50.47101" lon="3.3934">
        <ele>19.711953</ele>
        <time>2021-11-04T12:28:20.106Z</time>
      </trkpt>
      <trkpt lat="50.47115" lon="3.39281">
        <ele>19.609417</ele>
        <time>2021-11-04T12:28:27.579Z</time>
      </trkpt>
      <trkpt lat="50.47144" lon="3.39193">
        <ele>19.515388</ele>
        <time>2021-11-04T12:28:39.615Z</time>
      </trkpt>
      <trkpt lat="50.47176" lon="3.39033">
        <ele>19.46005</ele>
        <time>2021-11-04T12:29:01.132Z</time>
      </trkpt>
      <trkpt lat="50.47192" lon="3.38981">
        <ele>19.440975</ele>
        <time>2021-11-04T12:29:08.889Z</time>
      </trkpt>
      <trkpt lat="50.47216" lon="3.3892">
        <ele>19.440537</ele>
        <time>2021-11-04T12:29:18.214Z</time>
      </trkpt>
      <trkpt lat="50.47272" lon="3.38828">
        <ele>19.443042</ele>
        <time>2021-11-04T12:29:34.687Z</time>
      </trkpt>
      <trkpt lat="50.47282" lon="3.38802">
        <ele>19.443641</ele>
        <time>2021-11-04T12:29:38.654Z</time>
      </trkpt>
      <trkpt lat="50.47288" lon="3.38767">
        <ele>19.444353</ele>
        <time>2021-11-04T12:29:43.190Z</time>
      </trkpt>
      <trkpt lat="50.47295" lon="3.38732">
        <ele>19.420909</ele>
        <time>2021-11-04T12:29:47.961Z</time>
      </trkpt>
      <trkpt lat="50.47357" lon="3.38496">
        <ele>19.017211</ele>
        <time>2021-11-04T12:30:19.092Z</time>
      </trkpt>
      <trkpt lat="50.47358" lon="3.38493">
        <ele>19.013279</ele>
        <time>2021-11-04T12:30:19.393Z</time>
      </trkpt>
      <trkpt lat="50.4736" lon="3.38488">
        <ele>19.004143</ele>
        <time>2021-11-04T12:30:20.096Z</time>
      </trkpt>
      <trkpt lat="50.47437" lon="3.38201">
        <ele>18.616052</ele>
        <time>2021-11-04T12:30:58.549Z</time>
      </trkpt>
      <trkpt lat="50.47586" lon="3.37645">
        <ele>19.106512</ele>
        <time>2021-11-04T12:32:18.593Z</time>
      </trkpt>
      <trkpt lat="50.47606" lon="3.37568">
        <ele>19.194661</ele>
        <time>2021-11-04T12:32:29.571Z</time>
      </trkpt>
      <trkpt lat="50.47611" lon="3.37549">
        <ele>19.217008</ele>
        <time>2021-11-04T12:32:32.330Z</time>
      </trkpt>
      <trkpt lat="50.47619" lon="3.37534">
        <ele>19.236574</ele>
        <time>2021-11-04T12:32:34.769Z</time>
      </trkpt>
      <trkpt lat="50.47622" lon="3.37529">
        <ele>19.244329</ele>
        <time>2021-11-04T12:32:35.736Z</time>
      </trkpt>
      <trkpt lat="50.47627" lon="3.3752">
        <ele>19.257423</ele>
        <time>2021-11-04T12:32:37.396Z</time>
      </trkpt>
      <trkpt lat="50.47664" lon="3.37496">
        <ele>19.323958</ele>
        <time>2021-11-04T12:32:45.721Z</time>
      </trkpt>
      <trkpt lat="50.47705" lon="3.37474">
        <ele>19.452579</ele>
        <time>2021-11-04T12:32:54.849Z</time>
      </trkpt>
      <trkpt lat="50.4784" lon="3.37402">
        <ele>19.919362</ele>
        <time>2021-11-04T12:33:25.429Z</time>
      </trkpt>
      <trkpt lat="50.47871" lon="3.37382">
        <ele>20.061083</ele>
        <time>2021-11-04T12:33:32.967Z</time>
      </trkpt>
      <trkpt lat="50.47896" lon="3.37358">
        <ele>20.185078</ele>
        <time>2021-11-04T12:33:39.416Z</time>
      </trkpt>
      <trkpt lat="50.47943" lon="3.37285">
        <ele>20.467159</ele>
        <time>2021-11-04T12:33:54.065Z</time>
      </trkpt>
      <trkpt lat="50.4804" lon="3.37082">
        <ele>20.944718</ele>
        <time>2021-11-04T12:34:29.122Z</time>
      </trkpt>
      <trkpt lat="50.48069" lon="3.3701">
        <ele>21.069288</ele>
        <time>2021-11-04T12:34:40.391Z</time>
      </trkpt>
      <trkpt lat="50.48117" lon="3.3686">
        <ele>20.882899</ele>
        <time>2021-11-04T12:35:01.395Z</time>
      </trkpt>
      <trkpt lat="50.48132" lon="3.36793">
        <ele>20.768161</ele>
        <time>2021-11-04T12:35:09.821Z</time>
      </trkpt>
      <trkpt lat="50.48143" lon="3.36713">
        <ele>20.641275</ele>
        <time>2021-11-04T12:35:19.748Z</time>
      </trkpt>
      <trkpt lat="50.48151" lon="3.36663">
        <ele>20.601314</ele>
        <time>2021-11-04T12:35:26.011Z</time>
      </trkpt>
      <trkpt lat="50.48161" lon="3.36588">
        <ele>20.542338</ele>
        <time>2021-11-04T12:35:35.360Z</time>
      </trkpt>
      <trkpt lat="50.48173" lon="3.36555">
        <ele>20.513212</ele>
        <time>2021-11-04T12:35:40.010Z</time>
      </trkpt>
      <trkpt lat="50.48272" lon="3.36423">
        <ele>20.828536</ele>
        <time>2021-11-04T12:36:07.123Z</time>
      </trkpt>
      <trkpt lat="50.48373" lon="3.36241">
        <ele>21.913139</ele>
        <time>2021-11-04T12:36:43.552Z</time>
      </trkpt>
      <trkpt lat="50.48379" lon="3.36227">
        <ele>22.016164</ele>
        <time>2021-11-04T12:36:46.484Z</time>
      </trkpt>
      <trkpt lat="50.48385" lon="3.36214">
        <ele>22.102553</ele>
        <time>2021-11-04T12:36:48.451Z</time>
      </trkpt>
      <trkpt lat="50.4841" lon="3.3614">
        <ele>22.585969</ele>
        <time>2021-11-04T12:36:58.160Z</time>
      </trkpt>
      <trkpt lat="50.48415" lon="3.36123">
        <ele>22.689078</ele>
        <time>2021-11-04T12:37:00.552Z</time>
      </trkpt>
      <trkpt lat="50.4844" lon="3.36037">
        <ele>23.225341</ele>
        <time>2021-11-04T12:37:11.380Z</time>
      </trkpt>
      <trkpt lat="50.4844" lon="3.36037">
        <ele>23.226108</ele>
        <time>2021-11-04T12:37:11.418Z</time>
      </trkpt>
      <trkpt lat="50.48476" lon="3.35877">
        <ele>23.876983</ele>
        <time>2021-11-04T12:37:30.231Z</time>
      </trkpt>
      <trkpt lat="50.48577" lon="3.35632">
        <ele>24.81398</ele>
        <time>2021-11-04T12:38:01.223Z</time>
      </trkpt>
      <trkpt lat="50.48588" lon="3.35427">
        <ele>25.452149</ele>
        <time>2021-11-04T12:38:23.145Z</time>
      </trkpt>
      <trkpt lat="50.48591" lon="3.35416">
        <ele>25.490729</ele>
        <time>2021-11-04T12:38:24.509Z</time>
      </trkpt>
      <trkpt lat="50.48597" lon="3.35406">
        <ele>25.538292</ele>
        <time>2021-11-04T12:38:25.999Z</time>
      </trkpt>
      <trkpt lat="50.48642" lon="3.35358">
        <ele>25.823299</ele>
        <time>2021-11-04T12:38:35.013Z</time>
      </trkpt>
      <trkpt lat="50.4868" lon="3.35324">
        <ele>26.053822</ele>
        <time>2021-11-04T12:38:42.694Z</time>
      </trkpt>
      <trkpt lat="50.48709" lon="3.35312">
        <ele>26.17977</ele>
        <time>2021-11-04T12:38:47.702Z</time>
      </trkpt>
      <trkpt lat="50.48733" lon="3.35302">
        <ele>26.28323</ele>
        <time>2021-11-04T12:38:51.921Z</time>
      </trkpt>
      <trkpt lat="50.48779" lon="3.3528">
        <ele>26.482943</ele>
        <time>2021-11-04T12:38:59.678Z</time>
      </trkpt>
      <trkpt lat="50.48816" lon="3.3525">
        <ele>26.657504</ele>
        <time>2021-11-04T12:39:06.572Z</time>
      </trkpt>
      <trkpt lat="50.48826" lon="3.35242">
        <ele>26.707307</ele>
        <time>2021-11-04T12:39:08.509Z</time>
      </trkpt>
      <trkpt lat="50.48891" lon="3.35173">
        <ele>27.07145</ele>
        <time>2021-11-04T12:39:21.105Z</time>
      </trkpt>
      <trkpt lat="50.48898" lon="3.35161">
        <ele>27.122757</ele>
        <time>2021-11-04T12:39:22.834Z</time>
      </trkpt>
      <trkpt lat="50.489" lon="3.35149">
        <ele>27.163035</ele>
        <time>2021-11-04T12:39:24.231Z</time>
      </trkpt>
      <trkpt lat="50.489" lon="3.35135">
        <ele>27.205818</ele>
        <time>2021-11-04T12:39:25.632Z</time>
      </trkpt>
      <trkpt lat="50.48898" lon="3.35114">
        <ele>27.273512</ele>
        <time>2021-11-04T12:39:27.902Z</time>
      </trkpt>
      <trkpt lat="50.48895" lon="3.35086">
        <ele>27.360674</ele>
        <time>2021-11-04T12:39:30.966Z</time>
      </trkpt>
      <trkpt lat="50.48888" lon="3.35017">
        <ele>27.579129</ele>
        <time>2021-11-04T12:39:38.526Z</time>
      </trkpt>
      <trkpt lat="50.48883" lon="3.34952">
        <ele>27.802994</ele>
        <time>2021-11-04T12:39:45.770Z</time>
      </trkpt>
      <trkpt lat="50.48885" lon="3.34894">
        <ele>28.024199</ele>
        <time>2021-11-04T12:39:52.364Z</time>
      </trkpt>
      <trkpt lat="50.48886" lon="3.34877">
        <ele>28.088635</ele>
        <time>2021-11-04T12:39:54.260Z</time>
      </trkpt>
      <trkpt lat="50.48889" lon="3.3483">
        <ele>28.267255</ele>
        <time>2021-11-04T12:39:59.426Z</time>
      </trkpt>
      <trkpt lat="50.4889" lon="3.34825">
        <ele>28.285224</ele>
        <time>2021-11-04T12:39:59.947Z</time>
      </trkpt>
      <trkpt lat="50.48893" lon="3.34787">
        <ele>28.430186</ele>
        <time>2021-11-04T12:40:04.168Z</time>
      </trkpt>
      <trkpt lat="50.48899" lon="3.34771">
        <ele>28.501172</ele>
        <time>2021-11-04T12:40:06.148Z</time>
      </trkpt>
      <trkpt lat="50.48912" lon="3.3475">
        <ele>28.607173</ele>
        <time>2021-11-04T12:40:09.260Z</time>
      </trkpt>
      <trkpt lat="50.48914" lon="3.34745">
        <ele>28.632409</ele>
        <time>2021-11-04T12:40:09.988Z</time>
      </trkpt>
      <trkpt lat="50.48921" lon="3.3472">
        <ele>28.734026</ele>
        <time>2021-11-04T12:40:12.851Z</time>
      </trkpt>
      <trkpt lat="50.48925" lon="3.34694">
        <ele>28.771297</ele>
        <time>2021-11-04T12:40:15.793Z</time>
      </trkpt>
      <trkpt lat="50.48931" lon="3.3467">
        <ele>28.800622</ele>
        <time>2021-11-04T12:40:18.434Z</time>
      </trkpt>
      <trkpt lat="50.48937" lon="3.34658">
        <ele>28.819172</ele>
        <time>2021-11-04T12:40:20.173Z</time>
      </trkpt>
      <trkpt lat="50.49031" lon="3.34593">
        <ele>29.001596</ele>
        <time>2021-11-04T12:40:35.790Z</time>
      </trkpt>
      <trkpt lat="50.4911" lon="3.34552">
        <ele>29.059216</ele>
        <time>2021-11-04T12:40:48.074Z</time>
      </trkpt>
      <trkpt lat="50.49125" lon="3.34547">
        <ele>29.057573</ele>
        <time>2021-11-04T12:40:50.255Z</time>
      </trkpt>
      <trkpt lat="50.49133" lon="3.34546">
        <ele>29.056644</ele>
        <time>2021-11-04T12:40:51.506Z</time>
      </trkpt>
      <trkpt lat="50.49143" lon="3.34547">
        <ele>29.055548</ele>
        <time>2021-11-04T12:40:52.913Z</time>
      </trkpt>
      <trkpt lat="50.49156" lon="3.34547">
        <ele>29.054068</ele>
        <time>2021-11-04T12:40:54.860Z</time>
      </trkpt>
      <trkpt lat="50.49155" lon="3.34527">
        <ele>29.052613</ele>
        <time>2021-11-04T12:40:57.505Z</time>
      </trkpt>
      <trkpt lat="50.49144" lon="3.34326">
        <ele>28.951575</ele>
        <time>2021-11-04T12:41:23.227Z</time>
      </trkpt>
      <trkpt lat="50.49132" lon="3.34292">
        <ele>28.909868</ele>
        <time>2021-11-04T12:41:28.119Z</time>
      </trkpt>
      <trkpt lat="50.49094" lon="3.34248">
        <ele>28.830711</ele>
        <time>2021-11-04T12:41:37.205Z</time>
      </trkpt>
      <trkpt lat="50.49082" lon="3.34209">
        <ele>28.783807</ele>
        <time>2021-11-04T12:41:42.593Z</time>
      </trkpt>
      <trkpt lat="50.49096" lon="3.34105">
        <ele>28.624326</ele>
        <time>2021-11-04T12:41:55.688Z</time>
      </trkpt>
      <trkpt lat="50.49109" lon="3.34067">
        <ele>28.547859</ele>
        <time>2021-11-04T12:42:01.063Z</time>
      </trkpt>
      <trkpt lat="50.49111" lon="3.3406">
        <ele>28.536496</ele>
        <time>2021-11-04T12:42:01.780Z</time>
      </trkpt>
      <trkpt lat="50.49112" lon="3.34053">
        <ele>28.523631</ele>
        <time>2021-11-04T12:42:02.816Z</time>
      </trkpt>
      <trkpt lat="50.49109" lon="3.34029">
        <ele>28.479884</ele>
        <time>2021-11-04T12:42:05.891Z</time>
      </trkpt>
      <trkpt lat="50.4906" lon="3.3396">
        <ele>28.299155</ele>
        <time>2021-11-04T12:42:18.509Z</time>
      </trkpt>
      <trkpt lat="50.49035" lon="3.33914">
        <ele>28.218462</ele>
        <time>2021-11-04T12:42:25.775Z</time>
      </trkpt>
      <trkpt lat="50.4901" lon="3.33832">
        <ele>28.135475</ele>
        <time>2021-11-04T12:42:36.820Z</time>
      </trkpt>
      <trkpt lat="50.48998" lon="3.33818">
        <ele>28.113528</ele>
        <time>2021-11-04T12:42:39.756Z</time>
      </trkpt>
      <trkpt lat="50.48938" lon="3.33794">
        <ele>28.025598</ele>
        <time>2021-11-04T12:42:51.848Z</time>
      </trkpt>
      <trkpt lat="50.48923" lon="3.33779">
        <ele>27.999908</ele>
        <time>2021-11-04T12:42:55.465Z</time>
      </trkpt>
      <trkpt lat="50.48873" lon="3.33684">
        <ele>28.278909</ele>
        <time>2021-11-04T12:43:12.123Z</time>
      </trkpt>
      <trkpt lat="50.48873" lon="3.33684">
        <ele>28.279398</ele>
        <time>2021-11-04T12:43:12.280Z</time>
      </trkpt>
      <trkpt lat="50.48834" lon="3.33645">
        <ele>28.469798</ele>
        <time>2021-11-04T12:43:22.343Z</time>
      </trkpt>
      <trkpt lat="50.48803" lon="3.33614">
        <ele>28.622356</ele>
        <time>2021-11-04T12:43:30.726Z</time>
      </trkpt>
      <trkpt lat="50.48802" lon="3.33613">
        <ele>28.628866</ele>
        <time>2021-11-04T12:43:31.219Z</time>
      </trkpt>
      <trkpt lat="50.48789" lon="3.33597">
        <ele>28.694644</ele>
        <time>2021-11-04T12:43:34.790Z</time>
      </trkpt>
      <trkpt lat="50.48774" lon="3.33592">
        <ele>28.76946</ele>
        <time>2021-11-04T12:43:38.423Z</time>
      </trkpt>
      <trkpt lat="50.48666" lon="3.33568">
        <ele>29.426421</ele>
        <time>2021-11-04T12:44:03.429Z</time>
      </trkpt>
      <trkpt lat="50.48647" lon="3.33573">
        <ele>29.540398</ele>
        <time>2021-11-04T12:44:07.595Z</time>
      </trkpt>
      <trkpt lat="50.48639" lon="3.33583">
        <ele>29.602073</ele>
        <time>2021-11-04T12:44:09.937Z</time>
      </trkpt>
      <trkpt lat="50.48641" lon="3.33517">
        <ele>29.870919</ele>
        <time>2021-11-04T12:44:19.165Z</time>
      </trkpt>
      <trkpt lat="50.48643" lon="3.33486">
        <ele>30.040229</ele>
        <time>2021-11-04T12:44:23.593Z</time>
      </trkpt>
      <trkpt lat="50.48648" lon="3.33434">
        <ele>30.321667</ele>
        <time>2021-11-04T12:44:31.155Z</time>
      </trkpt>
      <trkpt lat="50.48653" lon="3.33382">
        <ele>30.599919</ele>
        <time>2021-11-04T12:44:38.764Z</time>
      </trkpt>
      <trkpt lat="50.4861" lon="3.33142">
        <ele>32.104469</ele>
        <time>2021-11-04T12:45:17.889Z</time>
      </trkpt>
      <trkpt lat="50.48557" lon="3.32849">
        <ele>33.600306</ele>
        <time>2021-11-04T12:46:05.211Z</time>
      </trkpt>
      <trkpt lat="50.48516" lon="3.32779">
        <ele>33.835069</ele>
        <time>2021-11-04T12:46:17.631Z</time>
      </trkpt>
      <trkpt lat="50.48404" lon="3.32597">
        <ele>33.263637</ele>
        <time>2021-11-04T12:46:47.225Z</time>
      </trkpt>
      <trkpt lat="50.48422" lon="3.32472">
        <ele>32.824735</ele>
        <time>2021-11-04T12:47:01.917Z</time>
      </trkpt>
      <trkpt lat="50.48418" lon="3.32449">
        <ele>32.74556</ele>
        <time>2021-11-04T12:47:04.676Z</time>
      </trkpt>
      <trkpt lat="50.48408" lon="3.3245">
        <ele>32.696646</ele>
        <time>2021-11-04T12:47:05.892Z</time>
      </trkpt>
      <trkpt lat="50.48401" lon="3.32446">
        <ele>32.658722</ele>
        <time>2021-11-04T12:47:06.878Z</time>
      </trkpt>
      <trkpt lat="50.48343" lon="3.32311">
        <ele>32.120981</ele>
        <time>2021-11-04T12:47:20.708Z</time>
      </trkpt>
      <trkpt lat="50.48293" lon="3.32192">
        <ele>31.745122</ele>
        <time>2021-11-04T12:47:33.000Z</time>
      </trkpt>
      <trkpt lat="50.48254" lon="3.32101">
        <ele>31.476217</ele>
        <time>2021-11-04T12:47:42.599Z</time>
      </trkpt>
      <trkpt lat="50.48156" lon="3.31891">
        <ele>30.763577</ele>
        <time>2021-11-04T12:48:04.688Z</time>
      </trkpt>
      <trkpt lat="50.48119" lon="3.31836">
        <ele>30.540195</ele>
        <time>2021-11-04T12:48:11.500Z</time>
      </trkpt>
      <trkpt lat="50.48087" lon="3.31785">
        <ele>30.414179</ele>
        <time>2021-11-04T12:48:17.608Z</time>
      </trkpt>
      <trkpt lat="50.48056" lon="3.31744">
        <ele>30.30277</ele>
        <time>2021-11-04T12:48:23.113Z</time>
      </trkpt>
      <trkpt lat="50.4801" lon="3.31673">
        <ele>30.124386</ele>
        <time>2021-11-04T12:48:32.142Z</time>
      </trkpt>
      <trkpt lat="50.47978" lon="3.31606">
        <ele>30.066241</ele>
        <time>2021-11-04T12:48:39.943Z</time>
      </trkpt>
      <trkpt lat="50.47938" lon="3.31515">
        <ele>30.108592</ele>
        <time>2021-11-04T12:48:50.730Z</time>
      </trkpt>
      <trkpt lat="50.47871" lon="3.31334">
        <ele>30.171851</ele>
        <time>2021-11-04T12:49:11.008Z</time>
      </trkpt>
      <trkpt lat="50.47788" lon="3.31201">
        <ele>30.202211</ele>
        <time>2021-11-04T12:49:28.494Z</time>
      </trkpt>
      <trkpt lat="50.47772" lon="3.31171">
        <ele>30.24766</ele>
        <time>2021-11-04T12:49:32.043Z</time>
      </trkpt>
      <trkpt lat="50.47655" lon="3.30958">
        <ele>30.846738</ele>
        <time>2021-11-04T12:50:00.946Z</time>
      </trkpt>
      <trkpt lat="50.47629" lon="3.30906">
        <ele>31.12672</ele>
        <time>2021-11-04T12:50:08.620Z</time>
      </trkpt>
      <trkpt lat="50.47628" lon="3.30894">
        <ele>31.177018</ele>
        <time>2021-11-04T12:50:10.232Z</time>
      </trkpt>
      <trkpt lat="50.47627" lon="3.30884">
        <ele>31.219687</ele>
        <time>2021-11-04T12:50:11.433Z</time>
      </trkpt>
      <trkpt lat="50.47628" lon="3.30874">
        <ele>31.262147</ele>
        <time>2021-11-04T12:50:12.490Z</time>
      </trkpt>
      <trkpt lat="50.47642" lon="3.30822">
        <ele>31.502253</ele>
        <time>2021-11-04T12:50:18.975Z</time>
      </trkpt>
      <trkpt lat="50.4765" lon="3.30794">
        <ele>31.633065</ele>
        <time>2021-11-04T12:50:22.524Z</time>
      </trkpt>
      <trkpt lat="50.47663" lon="3.3073">
        <ele>31.915699</ele>
        <time>2021-11-04T12:50:29.893Z</time>
      </trkpt>
      <trkpt lat="50.47665" lon="3.30688">
        <ele>31.913697</ele>
        <time>2021-11-04T12:50:34.117Z</time>
      </trkpt>
      <trkpt lat="50.47664" lon="3.30681">
        <ele>31.903647</ele>
        <time>2021-11-04T12:50:35.155Z</time>
      </trkpt>
      <trkpt lat="50.4766" lon="3.30674">
        <ele>31.891154</ele>
        <time>2021-11-04T12:50:36.072Z</time>
      </trkpt>
      <trkpt lat="50.47629" lon="3.30656">
        <ele>31.821081</ele>
        <time>2021-11-04T12:50:41.155Z</time>
      </trkpt>
      <trkpt lat="50.4762" lon="3.30653">
        <ele>31.802834</ele>
        <time>2021-11-04T12:50:42.185Z</time>
      </trkpt>
      <trkpt lat="50.47589" lon="3.30651">
        <ele>31.736724</ele>
        <time>2021-11-04T12:50:46.688Z</time>
      </trkpt>
      <trkpt lat="50.47556" lon="3.30639">
        <ele>31.665929</ele>
        <time>2021-11-04T12:50:51.091Z</time>
      </trkpt>
      <trkpt lat="50.4752" lon="3.30616">
        <ele>31.582755</ele>
        <time>2021-11-04T12:50:56.094Z</time>
      </trkpt>
      <trkpt lat="50.47517" lon="3.30615">
        <ele>31.576274</ele>
        <time>2021-11-04T12:50:56.409Z</time>
      </trkpt>
      <trkpt lat="50.47438" lon="3.30535">
        <ele>31.246438</ele>
        <time>2021-11-04T12:51:08.593Z</time>
      </trkpt>
      <trkpt lat="50.47399" lon="3.30495">
        <ele>31.081519</ele>
        <time>2021-11-04T12:51:14.945Z</time>
      </trkpt>
      <trkpt lat="50.47367" lon="3.30461">
        <ele>30.946441</ele>
        <time>2021-11-04T12:51:20.714Z</time>
      </trkpt>
      <trkpt lat="50.47361" lon="3.30453">
        <ele>31.008008</ele>
        <time>2021-11-04T12:51:21.880Z</time>
      </trkpt>
      <trkpt lat="50.47351" lon="3.30438">
        <ele>31.124611</ele>
        <time>2021-11-04T12:51:24.208Z</time>
      </trkpt>
      <trkpt lat="50.47323" lon="3.30388">
        <ele>31.482569</ele>
        <time>2021-11-04T12:51:31.434Z</time>
      </trkpt>
      <trkpt lat="50.47303" lon="3.30297">
        <ele>32.000058</ele>
        <time>2021-11-04T12:51:42.798Z</time>
      </trkpt>
      <trkpt lat="50.47302" lon="3.30293">
        <ele>32.024451</ele>
        <time>2021-11-04T12:51:43.453Z</time>
      </trkpt>
      <trkpt lat="50.4731" lon="3.30279">
        <ele>32.120025</ele>
        <time>2021-11-04T12:51:45.907Z</time>
      </trkpt>
      <trkpt lat="50.47353" lon="3.30171">
        <ele>32.923789</ele>
        <time>2021-11-04T12:52:02.221Z</time>
      </trkpt>
      <trkpt lat="50.47374" lon="3.3013">
        <ele>33.312974</ele>
        <time>2021-11-04T12:52:09.177Z</time>
      </trkpt>
      <trkpt lat="50.47379" lon="3.30124">
        <ele>33.379939</ele>
        <time>2021-11-04T12:52:10.332Z</time>
      </trkpt>
      <trkpt lat="50.47387" lon="3.30113">
        <ele>33.507122</ele>
        <time>2021-11-04T12:52:12.548Z</time>
      </trkpt>
      <trkpt lat="50.47394" lon="3.30101">
        <ele>33.621544</ele>
        <time>2021-11-04T12:52:14.791Z</time>
      </trkpt>
      <trkpt lat="50.47401" lon="3.30085">
        <ele>33.764332</ele>
        <time>2021-11-04T12:52:17.264Z</time>
      </trkpt>
      <trkpt lat="50.47405" lon="3.30077">
        <ele>33.83912</ele>
        <time>2021-11-04T12:52:18.558Z</time>
      </trkpt>
      <trkpt lat="50.47412" lon="3.30062">
        <ele>33.967094</ele>
        <time>2021-11-04T12:52:20.710Z</time>
      </trkpt>
      <trkpt lat="50.47416" lon="3.30051">
        <ele>34.0619</ele>
        <time>2021-11-04T12:52:22.239Z</time>
      </trkpt>
      <trkpt lat="50.47408" lon="3.30044">
        <ele>34.169729</ele>
        <time>2021-11-04T12:52:33.103Z</time>
      </trkpt>
      <trkpt lat="50.47401" lon="3.30037">
        <ele>34.263691</ele>
        <time>2021-11-04T12:52:42.626Z</time>
      </trkpt>
      <trkpt lat="50.474" lon="3.30036">
        <ele>34.275129</ele>
        <time>2021-11-04T12:52:43.754Z</time>
      </trkpt>
      <trkpt lat="50.47401" lon="3.30037">
        <ele>34.286567</ele>
        <time>2021-11-04T12:52:44.886Z</time>
      </trkpt>
      <trkpt lat="50.47408" lon="3.30044">
        <ele>34.380528</ele>
        <time>2021-11-04T12:52:54.358Z</time>
      </trkpt>
      <trkpt lat="50.47416" lon="3.30051">
        <ele>34.488358</ele>
        <time>2021-11-04T12:53:05.118Z</time>
      </trkpt>
      <trkpt lat="50.47443" lon="3.29979">
        <ele>34.417248</ele>
        <time>2021-11-04T12:53:13.977Z</time>
      </trkpt>
      <trkpt lat="50.47463" lon="3.29924">
        <ele>34.340653</ele>
        <time>2021-11-04T12:53:19.771Z</time>
      </trkpt>
      <trkpt lat="50.47479" lon="3.29879">
        <ele>34.279607</ele>
        <time>2021-11-04T12:53:24.163Z</time>
      </trkpt>
      <trkpt lat="50.4744" lon="3.29849">
        <ele>34.197138</ele>
        <time>2021-11-04T12:53:29.668Z</time>
      </trkpt>
      <trkpt lat="50.47432" lon="3.29843">
        <ele>34.181963</ele>
        <time>2021-11-04T12:53:30.729Z</time>
      </trkpt>
      <trkpt lat="50.47427" lon="3.29842">
        <ele>34.159456</ele>
        <time>2021-11-04T12:53:31.452Z</time>
      </trkpt>
      <trkpt lat="50.47409" lon="3.29839">
        <ele>34.020735</ele>
        <time>2021-11-04T12:53:33.634Z</time>
      </trkpt>
      <trkpt lat="50.47364" lon="3.29836">
        <ele>33.67611</ele>
        <time>2021-11-04T12:53:39.148Z</time>
      </trkpt>
      <trkpt lat="50.4734" lon="3.29829">
        <ele>33.482857</ele>
        <time>2021-11-04T12:53:42.168Z</time>
      </trkpt>
      <trkpt lat="50.4731" lon="3.29813">
        <ele>33.241444</ele>
        <time>2021-11-04T12:53:46.104Z</time>
      </trkpt>
      <trkpt lat="50.47305" lon="3.29809">
        <ele>33.193726</ele>
        <time>2021-11-04T12:53:46.860Z</time>
      </trkpt>
      <trkpt lat="50.47265" lon="3.2977">
        <ele>32.829602</ele>
        <time>2021-11-04T12:53:52.855Z</time>
      </trkpt>
      <trkpt lat="50.47242" lon="3.29735">
        <ele>32.744419</ele>
        <time>2021-11-04T12:53:57.155Z</time>
      </trkpt>
      <trkpt lat="50.47221" lon="3.29692">
        <ele>32.696799</ele>
        <time>2021-11-04T12:54:01.964Z</time>
      </trkpt>
      <trkpt lat="50.47209" lon="3.29648">
        <ele>32.656203</ele>
        <time>2021-11-04T12:54:06.185Z</time>
      </trkpt>
      <trkpt lat="50.4719" lon="3.29556">
        <ele>32.572439</ele>
        <time>2021-11-04T12:54:15.696Z</time>
      </trkpt>
      <trkpt lat="50.47139" lon="3.29337">
        <ele>32.381871</ele>
        <time>2021-11-04T12:54:38.531Z</time>
      </trkpt>
      <trkpt lat="50.47134" lon="3.29226">
        <ele>32.135542</ele>
        <time>2021-11-04T12:54:48.041Z</time>
      </trkpt>
      <trkpt lat="50.47133" lon="3.29223">
        <ele>32.111808</ele>
        <time>2021-11-04T12:54:48.520Z</time>
      </trkpt>
      <trkpt lat="50.47131" lon="3.29217">
        <ele>32.040938</ele>
        <time>2021-11-04T12:54:49.017Z</time>
      </trkpt>
      <trkpt lat="50.4712" lon="3.29203">
        <ele>31.841371</ele>
        <time>2021-11-04T12:54:50.656Z</time>
      </trkpt>
      <trkpt lat="50.47026" lon="3.29195">
        <ele>30.462454</ele>
        <time>2021-11-04T12:55:01.627Z</time>
      </trkpt>
      <trkpt lat="50.4699" lon="3.29171">
        <ele>29.895559</ele>
        <time>2021-11-04T12:55:05.885Z</time>
      </trkpt>
      <trkpt lat="50.46975" lon="3.29161">
        <ele>29.650526</ele>
        <time>2021-11-04T12:55:07.593Z</time>
      </trkpt>
      <trkpt lat="50.46893" lon="3.29102">
        <ele>27.683913</ele>
        <time>2021-11-04T12:55:17.327Z</time>
      </trkpt>
      <trkpt lat="50.46886" lon="3.29098">
        <ele>27.528264</ele>
        <time>2021-11-04T12:55:18.070Z</time>
      </trkpt>
      <trkpt lat="50.46864" lon="3.29084">
        <ele>27.019184</ele>
        <time>2021-11-04T12:55:20.584Z</time>
      </trkpt>
      <trkpt lat="50.46861" lon="3.29081">
        <ele>26.932585</ele>
        <time>2021-11-04T12:55:21.019Z</time>
      </trkpt>
      <trkpt lat="50.46827" lon="3.29056">
        <ele>26.130834</ele>
        <time>2021-11-04T12:55:25.051Z</time>
      </trkpt>
      <trkpt lat="50.46817" lon="3.29055">
        <ele>25.911708</ele>
        <time>2021-11-04T12:55:26.167Z</time>
      </trkpt>
      <trkpt lat="50.46806" lon="3.29055">
        <ele>25.721138</ele>
        <time>2021-11-04T12:55:27.464Z</time>
      </trkpt>
      <trkpt lat="50.4679" lon="3.2906">
        <ele>25.534671</ele>
        <time>2021-11-04T12:55:29.211Z</time>
      </trkpt>
      <trkpt lat="50.4678" lon="3.29065">
        <ele>25.407432</ele>
        <time>2021-11-04T12:55:30.414Z</time>
      </trkpt>
      <trkpt lat="50.46775" lon="3.29067">
        <ele>25.338689</ele>
        <time>2021-11-04T12:55:31.100Z</time>
      </trkpt>
      <trkpt lat="50.46752" lon="3.29075">
        <ele>25.056375</ele>
        <time>2021-11-04T12:55:33.817Z</time>
      </trkpt>
      <trkpt lat="50.46724" lon="3.29072">
        <ele>24.719131</ele>
        <time>2021-11-04T12:55:37.142Z</time>
      </trkpt>
      <trkpt lat="50.46694" lon="3.29051">
        <ele>24.328013</ele>
        <time>2021-11-04T12:55:41.123Z</time>
      </trkpt>
      <trkpt lat="50.46587" lon="3.28968">
        <ele>23.311795</ele>
        <time>2021-11-04T12:55:56.425Z</time>
      </trkpt>
      <trkpt lat="50.46566" lon="3.2894">
        <ele>23.166987</ele>
        <time>2021-11-04T12:56:00.116Z</time>
      </trkpt>
      <trkpt lat="50.46559" lon="3.28928">
        <ele>23.114432</ele>
        <time>2021-11-04T12:56:01.427Z</time>
      </trkpt>
      <trkpt lat="50.46531" lon="3.28877">
        <ele>22.887027</ele>
        <time>2021-11-04T12:56:07.187Z</time>
      </trkpt>
      <trkpt lat="50.46518" lon="3.28858">
        <ele>22.79133</ele>
        <time>2021-11-04T12:56:09.661Z</time>
      </trkpt>
      <trkpt lat="50.46503" lon="3.28845">
        <ele>22.701287</ele>
        <time>2021-11-04T12:56:11.917Z</time>
      </trkpt>
      <trkpt lat="50.4643" lon="3.28801">
        <ele>22.400566</ele>
        <time>2021-11-04T12:56:22.338Z</time>
      </trkpt>
      <trkpt lat="50.4626" lon="3.28697">
        <ele>21.826923</ele>
        <time>2021-11-04T12:56:47.212Z</time>
      </trkpt>
      <trkpt lat="50.46234" lon="3.28694">
        <ele>21.769734</ele>
        <time>2021-11-04T12:56:50.852Z</time>
      </trkpt>
      <trkpt lat="50.46212" lon="3.28702">
        <ele>21.720037</ele>
        <time>2021-11-04T12:56:54.102Z</time>
      </trkpt>
      <trkpt lat="50.46161" lon="3.28734">
        <ele>21.603708</ele>
        <time>2021-11-04T12:57:02.004Z</time>
      </trkpt>
      <trkpt lat="50.4609" lon="3.28781">
        <ele>21.71941</ele>
        <time>2021-11-04T12:57:13.674Z</time>
      </trkpt>
      <trkpt lat="50.46035" lon="3.28819">
        <ele>21.809947</ele>
        <time>2021-11-04T12:57:23.149Z</time>
      </trkpt>
      <trkpt lat="50.45937" lon="3.28877">
        <ele>22.120137</ele>
        <time>2021-11-04T12:57:39.922Z</time>
      </trkpt>
      <trkpt lat="50.45937" lon="3.28877">
        <ele>22.121742</ele>
        <time>2021-11-04T12:57:40.004Z</time>
      </trkpt>
      <trkpt lat="50.45907" lon="3.28887">
        <ele>22.24492</ele>
        <time>2021-11-04T12:57:45.184Z</time>
      </trkpt>
      <trkpt lat="50.45882" lon="3.28895">
        <ele>22.343742</ele>
        <time>2021-11-04T12:57:49.347Z</time>
      </trkpt>
      <trkpt lat="50.45878" lon="3.28897">
        <ele>22.362798</ele>
        <time>2021-11-04T12:57:50.082Z</time>
      </trkpt>
      <trkpt lat="50.45866" lon="3.28896">
        <ele>22.408819</ele>
        <time>2021-11-04T12:57:52.029Z</time>
      </trkpt>
      <trkpt lat="50.4586" lon="3.28896">
        <ele>22.434211</ele>
        <time>2021-11-04T12:57:53.026Z</time>
      </trkpt>
      <trkpt lat="50.45867" lon="3.28854">
        <ele>22.542311</ele>
        <time>2021-11-04T12:57:57.679Z</time>
      </trkpt>
      <trkpt lat="50.4587" lon="3.28836">
        <ele>22.587006</ele>
        <time>2021-11-04T12:57:59.673Z</time>
      </trkpt>
      <trkpt lat="50.45876" lon="3.28805">
        <ele>22.634729</ele>
        <time>2021-11-04T12:58:03.131Z</time>
      </trkpt>
      <trkpt lat="50.45889" lon="3.28723">
        <ele>22.755621</ele>
        <time>2021-11-04T12:58:11.735Z</time>
      </trkpt>
      <trkpt lat="50.45908" lon="3.28684">
        <ele>22.827364</ele>
        <time>2021-11-04T12:58:16.673Z</time>
      </trkpt>
      <trkpt lat="50.45915" lon="3.28673">
        <ele>22.849753</ele>
        <time>2021-11-04T12:58:18.323Z</time>
      </trkpt>
      <trkpt lat="50.45924" lon="3.28655">
        <ele>22.881823</ele>
        <time>2021-11-04T12:58:20.538Z</time>
      </trkpt>
      <trkpt lat="50.45931" lon="3.28636">
        <ele>22.913635</ele>
        <time>2021-11-04T12:58:22.757Z</time>
      </trkpt>
      <trkpt lat="50.45909" lon="3.28614">
        <ele>22.971677</ele>
        <time>2021-11-04T12:58:28.020Z</time>
      </trkpt>
      <trkpt lat="50.45886" lon="3.28586">
        <ele>22.922086</ele>
        <time>2021-11-04T12:58:33.851Z</time>
      </trkpt>
      <trkpt lat="50.45864" lon="3.28571">
        <ele>22.841588</ele>
        <time>2021-11-04T12:58:38.477Z</time>
      </trkpt>
      <trkpt lat="50.45859" lon="3.28567">
        <ele>22.825331</ele>
        <time>2021-11-04T12:58:39.382Z</time>
      </trkpt>
      <trkpt lat="50.45827" lon="3.28529">
        <ele>22.689333</ele>
        <time>2021-11-04T12:58:46.947Z</time>
      </trkpt>
      <trkpt lat="50.45822" lon="3.28522">
        <ele>22.667043</ele>
        <time>2021-11-04T12:58:48.179Z</time>
      </trkpt>
      <trkpt lat="50.45752" lon="3.28433">
        <ele>22.36046</ele>
        <time>2021-11-04T12:59:05.054Z</time>
      </trkpt>
      <trkpt lat="50.45737" lon="3.28411">
        <ele>22.284076</ele>
        <time>2021-11-04T12:59:09.169Z</time>
      </trkpt>
      <trkpt lat="50.45733" lon="3.28406">
        <ele>22.267366</ele>
        <time>2021-11-04T12:59:10.012Z</time>
      </trkpt>
      <trkpt lat="50.45723" lon="3.28392">
        <ele>22.214723</ele>
        <time>2021-11-04T12:59:12.665Z</time>
      </trkpt>
      <trkpt lat="50.45715" lon="3.2838">
        <ele>22.174265</ele>
        <time>2021-11-04T12:59:14.987Z</time>
      </trkpt>
      <trkpt lat="50.45714" lon="3.28365">
        <ele>22.139298</ele>
        <time>2021-11-04T12:59:16.739Z</time>
      </trkpt>
      <trkpt lat="50.45747" lon="3.28235">
        <ele>21.803924</ele>
        <time>2021-11-04T12:59:33.286Z</time>
      </trkpt>
      <trkpt lat="50.45749" lon="3.28228">
        <ele>21.786993</ele>
        <time>2021-11-04T12:59:34.266Z</time>
      </trkpt>
      <trkpt lat="50.45743" lon="3.28203">
        <ele>21.721042</ele>
        <time>2021-11-04T12:59:37.452Z</time>
      </trkpt>
      <trkpt lat="50.45727" lon="3.2817">
        <ele>21.637742</ele>
        <time>2021-11-04T12:59:42.482Z</time>
      </trkpt>
      <trkpt lat="50.45725" lon="3.28168">
        <ele>21.632063</ele>
        <time>2021-11-04T12:59:42.803Z</time>
      </trkpt>
      <trkpt lat="50.45712" lon="3.28147">
        <ele>21.573188</ele>
        <time>2021-11-04T12:59:46.377Z</time>
      </trkpt>
      <trkpt lat="50.45704" lon="3.28135">
        <ele>21.539115</ele>
        <time>2021-11-04T12:59:48.520Z</time>
      </trkpt>
      <trkpt lat="50.45681" lon="3.28102">
        <ele>21.4419</ele>
        <time>2021-11-04T12:59:54.446Z</time>
      </trkpt>
      <trkpt lat="50.4565" lon="3.28064">
        <ele>21.319427</ele>
        <time>2021-11-04T13:00:01.989Z</time>
      </trkpt>
      <trkpt lat="50.45642" lon="3.28053">
        <ele>21.284821</ele>
        <time>2021-11-04T13:00:04.051Z</time>
      </trkpt>
      <trkpt lat="50.45631" lon="3.28037">
        <ele>21.23794</ele>
        <time>2021-11-04T13:00:06.949Z</time>
      </trkpt>
      <trkpt lat="50.45601" lon="3.27991">
        <ele>21.15544</ele>
        <time>2021-11-04T13:00:14.957Z</time>
      </trkpt>
      <trkpt lat="50.45524" lon="3.27849">
        <ele>21.181106</ele>
        <time>2021-11-04T13:00:39.246Z</time>
      </trkpt>
      <trkpt lat="50.45524" lon="3.27849">
        <ele>21.181167</ele>
        <time>2021-11-04T13:00:39.357Z</time>
      </trkpt>
      <trkpt lat="50.45497" lon="3.27771">
        <ele>21.19678</ele>
        <time>2021-11-04T13:00:50.870Z</time>
      </trkpt>
      <trkpt lat="50.45475" lon="3.27686">
        <ele>21.228421</ele>
        <time>2021-11-04T13:01:02.560Z</time>
      </trkpt>
      <trkpt lat="50.4546" lon="3.27654">
        <ele>21.241953</ele>
        <time>2021-11-04T13:01:07.646Z</time>
      </trkpt>
      <trkpt lat="50.45447" lon="3.27626">
        <ele>21.254054</ele>
        <time>2021-11-04T13:01:12.175Z</time>
      </trkpt>
      <trkpt lat="50.45402" lon="3.27556">
        <ele>21.288652</ele>
        <time>2021-11-04T13:01:25.317Z</time>
      </trkpt>
      <trkpt lat="50.45355" lon="3.27518">
        <ele>21.475636</ele>
        <time>2021-11-04T13:01:33.814Z</time>
      </trkpt>
      <trkpt lat="50.45293" lon="3.27473">
        <ele>21.722126</ele>
        <time>2021-11-04T13:01:45.126Z</time>
      </trkpt>
      <trkpt lat="50.45249" lon="3.27451">
        <ele>21.885211</ele>
        <time>2021-11-04T13:01:52.864Z</time>
      </trkpt>
      <trkpt lat="50.45208" lon="3.27452">
        <ele>21.918556</ele>
        <time>2021-11-04T13:01:59.659Z</time>
      </trkpt>
      <trkpt lat="50.45202" lon="3.27452">
        <ele>21.914722</ele>
        <time>2021-11-04T13:02:00.530Z</time>
      </trkpt>
      <trkpt lat="50.45137" lon="3.27467">
        <ele>21.875313</ele>
        <time>2021-11-04T13:02:10.585Z</time>
      </trkpt>
      <trkpt lat="50.45119" lon="3.27465">
        <ele>21.86498</ele>
        <time>2021-11-04T13:02:12.981Z</time>
      </trkpt>
      <trkpt lat="50.45094" lon="3.27449">
        <ele>21.848802</ele>
        <time>2021-11-04T13:02:16.708Z</time>
      </trkpt>
      <trkpt lat="50.4508" lon="3.27475">
        <ele>21.835355</ele>
        <time>2021-11-04T13:02:21.013Z</time>
      </trkpt>
      <trkpt lat="50.45046" lon="3.27536">
        <ele>21.648901</ele>
        <time>2021-11-04T13:02:30.246Z</time>
      </trkpt>
      <trkpt lat="50.44999" lon="3.27555">
        <ele>21.420072</ele>
        <time>2021-11-04T13:02:39.123Z</time>
      </trkpt>
      <trkpt lat="50.44913" lon="3.27547">
        <ele>21.01049</ele>
        <time>2021-11-04T13:02:55.182Z</time>
      </trkpt>
      <trkpt lat="50.44898" lon="3.27546">
        <ele>20.956352</ele>
        <time>2021-11-04T13:02:58.045Z</time>
      </trkpt>
      <trkpt lat="50.44868" lon="3.27556">
        <ele>20.882714</ele>
        <time>2021-11-04T13:03:03.896Z</time>
      </trkpt>
      <trkpt lat="50.44848" lon="3.27573">
        <ele>20.828278</ele>
        <time>2021-11-04T13:03:08.244Z</time>
      </trkpt>
      <trkpt lat="50.44703" lon="3.27646">
        <ele>20.433934</ele>
        <time>2021-11-04T13:03:38.395Z</time>
      </trkpt>
      <trkpt lat="50.44686" lon="3.27662">
        <ele>20.371461</ele>
        <time>2021-11-04T13:03:42.089Z</time>
      </trkpt>
      <trkpt lat="50.44649" lon="3.27731">
        <ele>20.186022</ele>
        <time>2021-11-04T13:03:53.025Z</time>
      </trkpt>
      <trkpt lat="50.4463" lon="3.27767">
        <ele>20.088045</ele>
        <time>2021-11-04T13:03:58.558Z</time>
      </trkpt>
      <trkpt lat="50.44608" lon="3.27801">
        <ele>19.988313</ele>
        <time>2021-11-04T13:04:04.181Z</time>
      </trkpt>
      <trkpt lat="50.44522" lon="3.27871">
        <ele>20.131456</ele>
        <time>2021-11-04T13:04:22.734Z</time>
      </trkpt>
      <trkpt lat="50.4449" lon="3.27878">
        <ele>20.195295</ele>
        <time>2021-11-04T13:04:29.490Z</time>
      </trkpt>
      <trkpt lat="50.4445" lon="3.27861">
        <ele>20.275686</ele>
        <time>2021-11-04T13:04:38.746Z</time>
      </trkpt>
      <trkpt lat="50.44416" lon="3.27877">
        <ele>20.643259</ele>
        <time>2021-11-04T13:04:47.293Z</time>
      </trkpt>
      <trkpt lat="50.44315" lon="3.27944">
        <ele>22.734214</ele>
        <time>2021-11-04T13:05:17.620Z</time>
      </trkpt>
      <trkpt lat="50.44199" lon="3.28128">
        <ele>26.383475</ele>
        <time>2021-11-04T13:06:08.342Z</time>
      </trkpt>
      <trkpt lat="50.44173" lon="3.2815">
        <ele>27.083942</ele>
        <time>2021-11-04T13:06:17.271Z</time>
      </trkpt>
      <trkpt lat="50.4413" lon="3.28217">
        <ele>28.112391</ele>
        <time>2021-11-04T13:06:33.997Z</time>
      </trkpt>
      <trkpt lat="50.44102" lon="3.28219">
        <ele>28.271439</ele>
        <time>2021-11-04T13:06:41.058Z</time>
      </trkpt>
      <trkpt lat="50.44088" lon="3.2821">
        <ele>28.35765</ele>
        <time>2021-11-04T13:06:45.023Z</time>
      </trkpt>
      <trkpt lat="50.44078" lon="3.28206">
        <ele>28.417475</ele>
        <time>2021-11-04T13:06:47.430Z</time>
      </trkpt>
      <trkpt lat="50.43865" lon="3.28098">
        <ele>28.748047</ele>
        <time>2021-11-04T13:07:31.386Z</time>
      </trkpt>
      <trkpt lat="50.43746" lon="3.28039">
        <ele>28.907861</ele>
        <time>2021-11-04T13:07:55.160Z</time>
      </trkpt>
      <trkpt lat="50.43741" lon="3.28037">
        <ele>28.929687</ele>
        <time>2021-11-04T13:07:56.153Z</time>
      </trkpt>
      <trkpt lat="50.43733" lon="3.28034">
        <ele>28.966827</ele>
        <time>2021-11-04T13:07:57.910Z</time>
      </trkpt>
      <trkpt lat="50.43733" lon="3.28043">
        <ele>28.993232</ele>
        <time>2021-11-04T13:07:59.150Z</time>
      </trkpt>
      <trkpt lat="50.43732" lon="3.28058">
        <ele>29.037836</ele>
        <time>2021-11-04T13:08:01.296Z</time>
      </trkpt>
      <trkpt lat="50.43725" lon="3.28244">
        <ele>29.800059</ele>
        <time>2021-11-04T13:08:30.173Z</time>
      </trkpt>
      <trkpt lat="50.4372" lon="3.28383">
        <ele>30.825269</ele>
        <time>2021-11-04T13:08:53.564Z</time>
      </trkpt>
      <trkpt lat="50.43719" lon="3.28404">
        <ele>30.983508</ele>
        <time>2021-11-04T13:08:57.093Z</time>
      </trkpt>
      <trkpt lat="50.43696" lon="3.28945">
        <ele>32.779491</ele>
        <time>2021-11-04T13:10:15.001Z</time>
      </trkpt>
      <trkpt lat="50.43693" lon="3.29018">
        <ele>32.846285</ele>
        <time>2021-11-04T13:10:23.909Z</time>
      </trkpt>
      <trkpt lat="50.43693" lon="3.29029">
        <ele>32.856411</ele>
        <time>2021-11-04T13:10:25.222Z</time>
      </trkpt>
      <trkpt lat="50.43677" lon="3.29403">
        <ele>30.060943</ele>
        <time>2021-11-04T13:11:05.165Z</time>
      </trkpt>
      <trkpt lat="50.43679" lon="3.29425">
        <ele>29.892113</ele>
        <time>2021-11-04T13:11:07.387Z</time>
      </trkpt>
      <trkpt lat="50.43689" lon="3.29466">
        <ele>29.564033</ele>
        <time>2021-11-04T13:11:12.031Z</time>
      </trkpt>
      <trkpt lat="50.43689" lon="3.29478">
        <ele>29.468602</ele>
        <time>2021-11-04T13:11:13.284Z</time>
      </trkpt>
      <trkpt lat="50.43685" lon="3.29497">
        <ele>29.318051</ele>
        <time>2021-11-04T13:11:14.831Z</time>
      </trkpt>
      <trkpt lat="50.43685" lon="3.29519">
        <ele>29.149036</ele>
        <time>2021-11-04T13:11:16.533Z</time>
      </trkpt>
      <trkpt lat="50.43699" lon="3.2958">
        <ele>28.662127</ele>
        <time>2021-11-04T13:11:21.621Z</time>
      </trkpt>
      <trkpt lat="50.43713" lon="3.29678">
        <ele>28.649352</ele>
        <time>2021-11-04T13:11:30.205Z</time>
      </trkpt>
      <trkpt lat="50.43715" lon="3.29708">
        <ele>28.686669</ele>
        <time>2021-11-04T13:11:33.105Z</time>
      </trkpt>
      <trkpt lat="50.4371" lon="3.29736">
        <ele>28.721465</ele>
        <time>2021-11-04T13:11:36.050Z</time>
      </trkpt>
      <trkpt lat="50.43701" lon="3.29762">
        <ele>28.757855</ele>
        <time>2021-11-04T13:11:39.528Z</time>
      </trkpt>
      <trkpt lat="50.43696" lon="3.29774">
        <ele>28.775177</ele>
        <time>2021-11-04T13:11:41.161Z</time>
      </trkpt>
      <trkpt lat="50.43687" lon="3.29796">
        <ele>28.806574</ele>
        <time>2021-11-04T13:11:44.161Z</time>
      </trkpt>
      <trkpt lat="50.43665" lon="3.29848">
        <ele>28.88234</ele>
        <time>2021-11-04T13:11:51.170Z</time>
      </trkpt>
      <trkpt lat="50.43637" lon="3.29975">
        <ele>29.135217</ele>
        <time>2021-11-04T13:12:06.031Z</time>
      </trkpt>
      <trkpt lat="50.4363" lon="3.30004">
        <ele>29.192655</ele>
        <time>2021-11-04T13:12:09.030Z</time>
      </trkpt>
      <trkpt lat="50.43628" lon="3.30036">
        <ele>29.254272</ele>
        <time>2021-11-04T13:12:12.234Z</time>
      </trkpt>
      <trkpt lat="50.43626" lon="3.30061">
        <ele>29.302482</ele>
        <time>2021-11-04T13:12:14.530Z</time>
      </trkpt>
      <trkpt lat="50.43626" lon="3.30167">
        <ele>29.363458</ele>
        <time>2021-11-04T13:12:24.245Z</time>
      </trkpt>
      <trkpt lat="50.43619" lon="3.30199">
        <ele>29.310402</ele>
        <time>2021-11-04T13:12:27.442Z</time>
      </trkpt>
      <trkpt lat="50.43604" lon="3.30233">
        <ele>29.246667</ele>
        <time>2021-11-04T13:12:31.121Z</time>
      </trkpt>
      <trkpt lat="50.43574" lon="3.3031">
        <ele>29.106375</ele>
        <time>2021-11-04T13:12:39.180Z</time>
      </trkpt>
      <trkpt lat="50.43552" lon="3.30398">
        <ele>28.949987</ele>
        <time>2021-11-04T13:12:47.381Z</time>
      </trkpt>
      <trkpt lat="50.43537" lon="3.30437">
        <ele>28.858342</ele>
        <time>2021-11-04T13:12:51.199Z</time>
      </trkpt>
      <trkpt lat="50.43497" lon="3.30473">
        <ele>28.712714</ele>
        <time>2021-11-04T13:12:57.381Z</time>
      </trkpt>
      <trkpt lat="50.4349" lon="3.3048">
        <ele>28.685226</ele>
        <time>2021-11-04T13:12:58.521Z</time>
      </trkpt>
      <trkpt lat="50.43479" lon="3.30501">
        <ele>28.631041</ele>
        <time>2021-11-04T13:13:00.854Z</time>
      </trkpt>
      <trkpt lat="50.43459" lon="3.3056">
        <ele>28.49729</ele>
        <time>2021-11-04T13:13:06.788Z</time>
      </trkpt>
      <trkpt lat="50.43451" lon="3.30591">
        <ele>28.428636</ele>
        <time>2021-11-04T13:13:09.840Z</time>
      </trkpt>
      <trkpt lat="50.43447" lon="3.30616">
        <ele>28.395836</ele>
        <time>2021-11-04T13:13:12.240Z</time>
      </trkpt>
      <trkpt lat="50.43447" lon="3.3067">
        <ele>28.340617</ele>
        <time>2021-11-04T13:13:17.120Z</time>
      </trkpt>
      <trkpt lat="50.43447" lon="3.3068">
        <ele>28.330568</ele>
        <time>2021-11-04T13:13:18.006Z</time>
      </trkpt>
      <trkpt lat="50.43443" lon="3.30829">
        <ele>28.177987</ele>
        <time>2021-11-04T13:13:31.945Z</time>
      </trkpt>
      <trkpt lat="50.43444" lon="3.30987">
        <ele>27.301781</ele>
        <time>2021-11-04T13:13:45.423Z</time>
      </trkpt>
      <trkpt lat="50.43442" lon="3.31027">
        <ele>26.99331</ele>
        <time>2021-11-04T13:13:48.509Z</time>
      </trkpt>
      <trkpt lat="50.43432" lon="3.3108">
        <ele>26.572815</ele>
        <time>2021-11-04T13:13:52.441Z</time>
      </trkpt>
      <trkpt lat="50.4341" lon="3.31154">
        <ele>25.928567</ele>
        <time>2021-11-04T13:13:58.245Z</time>
      </trkpt>
      <trkpt lat="50.43389" lon="3.31219">
        <ele>24.948161</ele>
        <time>2021-11-04T13:14:03.357Z</time>
      </trkpt>
      <trkpt lat="50.43365" lon="3.31262">
        <ele>24.173174</ele>
        <time>2021-11-04T13:14:07.248Z</time>
      </trkpt>
      <trkpt lat="50.43361" lon="3.31267">
        <ele>24.053556</ele>
        <time>2021-11-04T13:14:07.792Z</time>
      </trkpt>
      <trkpt lat="50.43352" lon="3.31274">
        <ele>23.857603</ele>
        <time>2021-11-04T13:14:09.277Z</time>
      </trkpt>
      <trkpt lat="50.4332" lon="3.31296">
        <ele>23.110355</ele>
        <time>2021-11-04T13:14:14.638Z</time>
      </trkpt>
      <trkpt lat="50.43243" lon="3.31331">
        <ele>21.626393</ele>
        <time>2021-11-04T13:14:27.286Z</time>
      </trkpt>
      <trkpt lat="50.43239" lon="3.31332">
        <ele>21.556196</ele>
        <time>2021-11-04T13:14:28.023Z</time>
      </trkpt>
      <trkpt lat="50.43227" lon="3.31333">
        <ele>21.382319</ele>
        <time>2021-11-04T13:14:29.819Z</time>
      </trkpt>
      <trkpt lat="50.43212" lon="3.31339">
        <ele>21.146101</ele>
        <time>2021-11-04T13:14:32.398Z</time>
      </trkpt>
      <trkpt lat="50.43155" lon="3.31391">
        <ele>20.148284</ele>
        <time>2021-11-04T13:14:43.500Z</time>
      </trkpt>
      <trkpt lat="50.43087" lon="3.31388">
        <ele>19.263332</ele>
        <time>2021-11-04T13:14:54.913Z</time>
      </trkpt>
      <trkpt lat="50.43043" lon="3.31407">
        <ele>18.892421</ele>
        <time>2021-11-04T13:15:02.963Z</time>
      </trkpt>
      <trkpt lat="50.43037" lon="3.31413">
        <ele>18.836697</ele>
        <time>2021-11-04T13:15:04.133Z</time>
      </trkpt>
      <trkpt lat="50.4304" lon="3.31418">
        <ele>18.803835</ele>
        <time>2021-11-04T13:15:04.609Z</time>
      </trkpt>
      <trkpt lat="50.43052" lon="3.31445">
        <ele>18.633412</ele>
        <time>2021-11-04T13:15:07.302Z</time>
      </trkpt>
      <trkpt lat="50.43075" lon="3.31544">
        <ele>18.085187</ele>
        <time>2021-11-04T13:15:15.873Z</time>
      </trkpt>
      <trkpt lat="50.43107" lon="3.31761">
        <ele>17.507474</ele>
        <time>2021-11-04T13:15:35.007Z</time>
      </trkpt>
      <trkpt lat="50.43111" lon="3.31797">
        <ele>17.424514</ele>
        <time>2021-11-04T13:15:38.243Z</time>
      </trkpt>
      <trkpt lat="50.43121" lon="3.31859">
        <ele>17.322043</ele>
        <time>2021-11-04T13:15:44.050Z</time>
      </trkpt>
      <trkpt lat="50.43134" lon="3.31957">
        <ele>17.338589</ele>
        <time>2021-11-04T13:15:53.442Z</time>
      </trkpt>
      <trkpt lat="50.43161" lon="3.32251">
        <ele>17.633428</ele>
        <time>2021-11-04T13:16:22.588Z</time>
      </trkpt>
      <trkpt lat="50.43165" lon="3.32374">
        <ele>17.880227</ele>
        <time>2021-11-04T13:16:35.758Z</time>
      </trkpt>
      <trkpt lat="50.43163" lon="3.32415">
        <ele>17.956963</ele>
        <time>2021-11-04T13:16:39.894Z</time>
      </trkpt>
      <trkpt lat="50.43157" lon="3.32506">
        <ele>18.104727</ele>
        <time>2021-11-04T13:16:49.345Z</time>
      </trkpt>
      <trkpt lat="50.43158" lon="3.32524">
        <ele>18.133658</ele>
        <time>2021-11-04T13:16:51.022Z</time>
      </trkpt>
      <trkpt lat="50.4316" lon="3.32535">
        <ele>18.153986</ele>
        <time>2021-11-04T13:16:52.337Z</time>
      </trkpt>
      <trkpt lat="50.4316" lon="3.32535">
        <ele>18.153986</ele>
        <time>2021-11-04T13:16:52.376Z</time>
      </trkpt>
      <trkpt lat="50.43174" lon="3.32572">
        <ele>18.222192</ele>
        <time>2021-11-04T13:16:56.368Z</time>
      </trkpt>
      <trkpt lat="50.43187" lon="3.32612">
        <ele>18.29587</ele>
        <time>2021-11-04T13:17:00.869Z</time>
      </trkpt>
      <trkpt lat="50.43192" lon="3.32628">
        <ele>18.324129</ele>
        <time>2021-11-04T13:17:02.352Z</time>
      </trkpt>
      <trkpt lat="50.43251" lon="3.32801">
        <ele>18.894564</ele>
        <time>2021-11-04T13:17:23.000Z</time>
      </trkpt>
      <trkpt lat="50.43258" lon="3.32816">
        <ele>18.954437</ele>
        <time>2021-11-04T13:17:24.837Z</time>
      </trkpt>
      <trkpt lat="50.43265" lon="3.32826">
        <ele>19.002671</ele>
        <time>2021-11-04T13:17:26.132Z</time>
      </trkpt>
      <trkpt lat="50.43272" lon="3.3283">
        <ele>19.041208</ele>
        <time>2021-11-04T13:17:27.816Z</time>
      </trkpt>
      <trkpt lat="50.43388" lon="3.32791">
        <ele>19.766034</ele>
        <time>2021-11-04T13:17:49.028Z</time>
      </trkpt>
      <trkpt lat="50.43411" lon="3.32804">
        <ele>19.930693</ele>
        <time>2021-11-04T13:17:53.395Z</time>
      </trkpt>
      <trkpt lat="50.43446" lon="3.32852">
        <ele>20.25102</ele>
        <time>2021-11-04T13:18:01.718Z</time>
      </trkpt>
      <trkpt lat="50.4347" lon="3.32889">
        <ele>20.4892</ele>
        <time>2021-11-04T13:18:07.600Z</time>
      </trkpt>
      <trkpt lat="50.43501" lon="3.32863">
        <ele>20.581453</ele>
        <time>2021-11-04T13:18:15.169Z</time>
      </trkpt>
      <trkpt lat="50.43501" lon="3.32863">
        <ele>20.581453</ele>
        <time>2021-11-04T13:18:15.191Z</time>
      </trkpt>
      <trkpt lat="50.43505" lon="3.32871">
        <ele>20.590877</ele>
        <time>2021-11-04T13:18:16.766Z</time>
      </trkpt>
      <trkpt lat="50.43525" lon="3.32921">
        <ele>20.64004</ele>
        <time>2021-11-04T13:18:24.767Z</time>
      </trkpt>
      <trkpt lat="50.43526" lon="3.32948">
        <ele>20.663051</ele>
        <time>2021-11-04T13:18:28.465Z</time>
      </trkpt>
      <trkpt lat="50.43534" lon="3.32956">
        <ele>20.67469</ele>
        <time>2021-11-04T13:18:29.742Z</time>
      </trkpt>
      <trkpt lat="50.43599" lon="3.3307">
        <ele>20.728407</ele>
        <time>2021-11-04T13:18:44.029Z</time>
      </trkpt>
      <trkpt lat="50.43625" lon="3.33105">
        <ele>20.608121</ele>
        <time>2021-11-04T13:18:48.757Z</time>
      </trkpt>
      <trkpt lat="50.43694" lon="3.33182">
        <ele>20.306684</ele>
        <time>2021-11-04T13:19:00.084Z</time>
      </trkpt>
      <trkpt lat="50.43695" lon="3.33183">
        <ele>20.301916</ele>
        <time>2021-11-04T13:19:00.229Z</time>
      </trkpt>
      <trkpt lat="50.43743" lon="3.33242">
        <ele>20.091416</ele>
        <time>2021-11-04T13:19:08.563Z</time>
      </trkpt>
      <trkpt lat="50.43745" lon="3.33245">
        <ele>20.081531</ele>
        <time>2021-11-04T13:19:08.925Z</time>
      </trkpt>
      <trkpt lat="50.43753" lon="3.33258">
        <ele>20.04507</ele>
        <time>2021-11-04T13:19:10.401Z</time>
      </trkpt>
      <trkpt lat="50.43799" lon="3.3336">
        <ele>19.791421</ele>
        <time>2021-11-04T13:19:21.010Z</time>
      </trkpt>
      <trkpt lat="50.43847" lon="3.33462">
        <ele>19.577585</ele>
        <time>2021-11-04T13:19:32.446Z</time>
      </trkpt>
      <trkpt lat="50.43876" lon="3.33519">
        <ele>19.606754</ele>
        <time>2021-11-04T13:19:39.649Z</time>
      </trkpt>
      <trkpt lat="50.43886" lon="3.3354">
        <ele>19.617427</ele>
        <time>2021-11-04T13:19:42.236Z</time>
      </trkpt>
      <trkpt lat="50.43915" lon="3.33601">
        <ele>19.647922</ele>
        <time>2021-11-04T13:19:49.671Z</time>
      </trkpt>
      <trkpt lat="50.43946" lon="3.33669">
        <ele>19.681456</ele>
        <time>2021-11-04T13:19:57.745Z</time>
      </trkpt>
      <trkpt lat="50.43955" lon="3.3369">
        <ele>19.674456</ele>
        <time>2021-11-04T13:20:00.179Z</time>
      </trkpt>
      <trkpt lat="50.43964" lon="3.33726">
        <ele>19.65601</ele>
        <time>2021-11-04T13:20:03.908Z</time>
      </trkpt>
      <trkpt lat="50.43963" lon="3.33796">
        <ele>19.621401</ele>
        <time>2021-11-04T13:20:10.852Z</time>
      </trkpt>
      <trkpt lat="50.43961" lon="3.33916">
        <ele>19.56312</ele>
        <time>2021-11-04T13:20:21.729Z</time>
      </trkpt>
      <trkpt lat="50.43958" lon="3.33992">
        <ele>19.40907</ele>
        <time>2021-11-04T13:20:28.210Z</time>
      </trkpt>
      <trkpt lat="50.43946" lon="3.33991">
        <ele>19.345406</ele>
        <time>2021-11-04T13:20:29.838Z</time>
      </trkpt>
      <trkpt lat="50.43877" lon="3.33966">
        <ele>18.980554</ele>
        <time>2021-11-04T13:20:39.088Z</time>
      </trkpt>
      <trkpt lat="50.43854" lon="3.33976">
        <ele>18.856988</ele>
        <time>2021-11-04T13:20:42.205Z</time>
      </trkpt>
      <trkpt lat="50.43843" lon="3.33989">
        <ele>18.78687</ele>
        <time>2021-11-04T13:20:44.039Z</time>
      </trkpt>
      <trkpt lat="50.43838" lon="3.34">
        <ele>18.741358</ele>
        <time>2021-11-04T13:20:45.143Z</time>
      </trkpt>
      <trkpt lat="50.43829" lon="3.3402">
        <ele>18.66277</ele>
        <time>2021-11-04T13:20:47.161Z</time>
      </trkpt>
      <trkpt lat="50.43784" lon="3.34154">
        <ele>18.15569</ele>
        <time>2021-11-04T13:20:59.703Z</time>
      </trkpt>
      <trkpt lat="50.43757" lon="3.34211">
        <ele>17.91825</ele>
        <time>2021-11-04T13:21:05.607Z</time>
      </trkpt>
      <trkpt lat="50.43711" lon="3.34283">
        <ele>17.624885</ele>
        <time>2021-11-04T13:21:14.530Z</time>
      </trkpt>
      <trkpt lat="50.43618" lon="3.34403">
        <ele>17.32471</ele>
        <time>2021-11-04T13:21:31.217Z</time>
      </trkpt>
      <trkpt lat="50.43587" lon="3.34428">
        <ele>17.238019</ele>
        <time>2021-11-04T13:21:36.200Z</time>
      </trkpt>
      <trkpt lat="50.43551" lon="3.34461">
        <ele>17.254345</ele>
        <time>2021-11-04T13:21:42.235Z</time>
      </trkpt>
      <trkpt lat="50.43499" lon="3.34492">
        <ele>17.307427</ele>
        <time>2021-11-04T13:21:50.791Z</time>
      </trkpt>
      <trkpt lat="50.43429" lon="3.34527">
        <ele>17.375639</ele>
        <time>2021-11-04T13:22:02.077Z</time>
      </trkpt>
      <trkpt lat="50.43445" lon="3.34579">
        <ele>17.388126</ele>
        <time>2021-11-04T13:22:07.803Z</time>
      </trkpt>
      <trkpt lat="50.43451" lon="3.34612">
        <ele>17.385172</ele>
        <time>2021-11-04T13:22:11.168Z</time>
      </trkpt>
      <trkpt lat="50.43453" lon="3.34634">
        <ele>17.383329</ele>
        <time>2021-11-04T13:22:13.315Z</time>
      </trkpt>
      <trkpt lat="50.43463" lon="3.34681">
        <ele>17.379114</ele>
        <time>2021-11-04T13:22:18.089Z</time>
      </trkpt>
      <trkpt lat="50.43526" lon="3.34817">
        <ele>17.298923</ele>
        <time>2021-11-04T13:22:33.614Z</time>
      </trkpt>
      <trkpt lat="50.43532" lon="3.34848">
        <ele>17.205534</ele>
        <time>2021-11-04T13:22:36.462Z</time>
      </trkpt>
      <trkpt lat="50.43529" lon="3.34884">
        <ele>17.10259</ele>
        <time>2021-11-04T13:22:39.561Z</time>
      </trkpt>
      <trkpt lat="50.43519" lon="3.34909">
        <ele>17.0178</ele>
        <time>2021-11-04T13:22:42.081Z</time>
      </trkpt>
      <trkpt lat="50.43478" lon="3.34957">
        <ele>16.791209</ele>
        <time>2021-11-04T13:22:48.699Z</time>
      </trkpt>
      <trkpt lat="50.43471" lon="3.34976">
        <ele>16.729542</ele>
        <time>2021-11-04T13:22:50.423Z</time>
      </trkpt>
      <trkpt lat="50.43478" lon="3.35117">
        <ele>16.339725</ele>
        <time>2021-11-04T13:23:02.214Z</time>
      </trkpt>
      <trkpt lat="50.43474" lon="3.35163">
        <ele>16.214093</ele>
        <time>2021-11-04T13:23:06.193Z</time>
      </trkpt>
      <trkpt lat="50.43463" lon="3.35203">
        <ele>16.097008</ele>
        <time>2021-11-04T13:23:09.839Z</time>
      </trkpt>
      <trkpt lat="50.43451" lon="3.35231">
        <ele>16.009283</ele>
        <time>2021-11-04T13:23:12.731Z</time>
      </trkpt>
      <trkpt lat="50.43444" lon="3.35244">
        <ele>15.961061</ele>
        <time>2021-11-04T13:23:14.241Z</time>
      </trkpt>
      <trkpt lat="50.43435" lon="3.35258">
        <ele>15.905975</ele>
        <time>2021-11-04T13:23:16.188Z</time>
      </trkpt>
      <trkpt lat="50.43333" lon="3.35354">
        <ele>15.845254</ele>
        <time>2021-11-04T13:23:33.213Z</time>
      </trkpt>
      <trkpt lat="50.43248" lon="3.35451">
        <ele>15.931345</ele>
        <time>2021-11-04T13:23:49.607Z</time>
      </trkpt>
      <trkpt lat="50.43221" lon="3.35461">
        <ele>16.001136</ele>
        <time>2021-11-04T13:23:53.992Z</time>
      </trkpt>
      <trkpt lat="50.43151" lon="3.35465">
        <ele>16.176643</ele>
        <time>2021-11-04T13:24:05.121Z</time>
      </trkpt>
      <trkpt lat="50.43071" lon="3.35479">
        <ele>16.343393</ele>
        <time>2021-11-04T13:24:18.038Z</time>
      </trkpt>
      <trkpt lat="50.42973" lon="3.35503">
        <ele>16.395695</ele>
        <time>2021-11-04T13:24:33.191Z</time>
      </trkpt>
      <trkpt lat="50.42942" lon="3.35521">
        <ele>16.413534</ele>
        <time>2021-11-04T13:24:38.170Z</time>
      </trkpt>
      <trkpt lat="50.42926" lon="3.35534">
        <ele>16.422905</ele>
        <time>2021-11-04T13:24:40.730Z</time>
      </trkpt>
      <trkpt lat="50.42906" lon="3.35559">
        <ele>16.413306</ele>
        <time>2021-11-04T13:24:44.375Z</time>
      </trkpt>
      <trkpt lat="50.42871" lon="3.3581">
        <ele>16.228699</ele>
        <time>2021-11-04T13:25:07.636Z</time>
      </trkpt>
      <trkpt lat="50.42849" lon="3.35972">
        <ele>16.233663</ele>
        <time>2021-11-04T13:25:23.338Z</time>
      </trkpt>
      <trkpt lat="50.42724" lon="3.36873">
        <ele>16.483241</ele>
        <time>2021-11-04T13:26:51.636Z</time>
      </trkpt>
      <trkpt lat="50.42718" lon="3.36892">
        <ele>16.48858</ele>
        <time>2021-11-04T13:26:53.648Z</time>
      </trkpt>
      <trkpt lat="50.4271" lon="3.36898">
        <ele>16.492043</ele>
        <time>2021-11-04T13:26:54.951Z</time>
      </trkpt>
      <trkpt lat="50.42686" lon="3.36915">
        <ele>16.476312</ele>
        <time>2021-11-04T13:26:58.915Z</time>
      </trkpt>
      <trkpt lat="50.42672" lon="3.36924">
        <ele>16.462676</ele>
        <time>2021-11-04T13:27:01.130Z</time>
      </trkpt>
      <trkpt lat="50.42613" lon="3.36958">
        <ele>16.403911</ele>
        <time>2021-11-04T13:27:10.433Z</time>
      </trkpt>
      <trkpt lat="50.42555" lon="3.36998">
        <ele>16.345238</ele>
        <time>2021-11-04T13:27:19.559Z</time>
      </trkpt>
      <trkpt lat="50.42464" lon="3.37078">
        <ele>16.263894</ele>
        <time>2021-11-04T13:27:33.807Z</time>
      </trkpt>
      <trkpt lat="50.42386" lon="3.37172">
        <ele>16.222834</ele>
        <time>2021-11-04T13:27:48.310Z</time>
      </trkpt>
      <trkpt lat="50.42376" lon="3.37193">
        <ele>16.357328</ele>
        <time>2021-11-04T13:27:50.977Z</time>
      </trkpt>
      <trkpt lat="50.42437" lon="3.37285">
        <ele>17.012436</ele>
        <time>2021-11-04T13:28:05.996Z</time>
      </trkpt>
      <trkpt lat="50.4248" lon="3.37352">
        <ele>17.484269</ele>
        <time>2021-11-04T13:28:17.826Z</time>
      </trkpt>
      <trkpt lat="50.4254" lon="3.37484">
        <ele>18.154372</ele>
        <time>2021-11-04T13:28:38.301Z</time>
      </trkpt>
      <trkpt lat="50.42557" lon="3.37552">
        <ele>18.445876</ele>
        <time>2021-11-04T13:28:46.632Z</time>
      </trkpt>
      <trkpt lat="50.42618" lon="3.37952">
        <ele>17.569894</ele>
        <time>2021-11-04T13:29:21.255Z</time>
      </trkpt>
      <trkpt lat="50.42626" lon="3.38072">
        <ele>16.994363</ele>
        <time>2021-11-04T13:29:30.692Z</time>
      </trkpt>
      <trkpt lat="50.4264" lon="3.38271">
        <ele>16.308722</ele>
        <time>2021-11-04T13:29:46.950Z</time>
      </trkpt>
      <trkpt lat="50.4265" lon="3.38379">
        <ele>16.08588</ele>
        <time>2021-11-04T13:29:56.720Z</time>
      </trkpt>
      <trkpt lat="50.42696" lon="3.3866">
        <ele>16.093598</ele>
        <time>2021-11-04T13:30:24.709Z</time>
      </trkpt>
      <trkpt lat="50.42701" lon="3.38666">
        <ele>16.101179</ele>
        <time>2021-11-04T13:30:25.658Z</time>
      </trkpt>
      <trkpt lat="50.42706" lon="3.38667">
        <ele>16.10718</ele>
        <time>2021-11-04T13:30:26.589Z</time>
      </trkpt>
      <trkpt lat="50.42798" lon="3.38637">
        <ele>16.193817</ele>
        <time>2021-11-04T13:30:41.285Z</time>
      </trkpt>
      <trkpt lat="50.42808" lon="3.38633">
        <ele>16.2021</ele>
        <time>2021-11-04T13:30:42.754Z</time>
      </trkpt>
      <trkpt lat="50.42814" lon="3.38633">
        <ele>16.206414</ele>
        <time>2021-11-04T13:30:43.634Z</time>
      </trkpt>
      <trkpt lat="50.42817" lon="3.38637">
        <ele>16.210205</ele>
        <time>2021-11-04T13:30:44.302Z</time>
      </trkpt>
      <trkpt lat="50.42821" lon="3.38649">
        <ele>16.216982</ele>
        <time>2021-11-04T13:30:45.699Z</time>
      </trkpt>
      <trkpt lat="50.4283" lon="3.38751">
        <ele>16.270423</ele>
        <time>2021-11-04T13:30:55.238Z</time>
      </trkpt>
      <trkpt lat="50.42832" lon="3.38757">
        <ele>16.27399</ele>
        <time>2021-11-04T13:30:55.993Z</time>
      </trkpt>
      <trkpt lat="50.42826" lon="3.38762">
        <ele>16.279495</ele>
        <time>2021-11-04T13:30:56.968Z</time>
      </trkpt>
      <trkpt lat="50.42802" lon="3.38784">
        <ele>16.315787</ele>
        <time>2021-11-04T13:31:01.044Z</time>
      </trkpt>
      <trkpt lat="50.42792" lon="3.38791">
        <ele>16.333463</ele>
        <time>2021-11-04T13:31:02.696Z</time>
      </trkpt>
      <trkpt lat="50.42765" lon="3.3881">
        <ele>16.380624</ele>
        <time>2021-11-04T13:31:07.152Z</time>
      </trkpt>
      <trkpt lat="50.42727" lon="3.38822">
        <ele>16.444525</ele>
        <time>2021-11-04T13:31:13.558Z</time>
      </trkpt>
      <trkpt lat="50.4269" lon="3.38836">
        <ele>16.505439</ele>
        <time>2021-11-04T13:31:19.392Z</time>
      </trkpt>
      <trkpt lat="50.42651" lon="3.38852">
        <ele>16.571857</ele>
        <time>2021-11-04T13:31:25.624Z</time>
      </trkpt>
      <trkpt lat="50.42621" lon="3.38862">
        <ele>16.572866</ele>
        <time>2021-11-04T13:31:30.254Z</time>
      </trkpt>
      <trkpt lat="50.42601" lon="3.38871">
        <ele>16.566258</ele>
        <time>2021-11-04T13:31:33.673Z</time>
      </trkpt>
      <trkpt lat="50.42571" lon="3.38884">
        <ele>16.55645</ele>
        <time>2021-11-04T13:31:38.555Z</time>
      </trkpt>
      <trkpt lat="50.42555" lon="3.38892">
        <ele>16.551189</ele>
        <time>2021-11-04T13:31:40.884Z</time>
      </trkpt>
      <trkpt lat="50.42491" lon="3.38941">
        <ele>16.528913</ele>
        <time>2021-11-04T13:31:50.975Z</time>
      </trkpt>
      <trkpt lat="50.42445" lon="3.38996">
        <ele>16.482289</ele>
        <time>2021-11-04T13:31:59.024Z</time>
      </trkpt>
      <trkpt lat="50.42412" lon="3.39049">
        <ele>16.435978</ele>
        <time>2021-11-04T13:32:05.509Z</time>
      </trkpt>
      <trkpt lat="50.42407" lon="3.39061">
        <ele>16.42687</ele>
        <time>2021-11-04T13:32:06.920Z</time>
      </trkpt>
      <trkpt lat="50.42402" lon="3.39072">
        <ele>16.41814</ele>
        <time>2021-11-04T13:32:08.356Z</time>
      </trkpt>
      <trkpt lat="50.42396" lon="3.39086">
        <ele>16.407776</ele>
        <time>2021-11-04T13:32:09.998Z</time>
      </trkpt>
      <trkpt lat="50.42322" lon="3.39255">
        <ele>16.397897</ele>
        <time>2021-11-04T13:32:29.419Z</time>
      </trkpt>
      <trkpt lat="50.42319" lon="3.39264">
        <ele>16.402959</ele>
        <time>2021-11-04T13:32:30.703Z</time>
      </trkpt>
      <trkpt lat="50.42254" lon="3.39417">
        <ele>16.48042</ele>
        <time>2021-11-04T13:32:48.177Z</time>
      </trkpt>
      <trkpt lat="50.41929" lon="3.40203">
        <ele>16.721124</ele>
        <time>2021-11-04T13:34:17.315Z</time>
      </trkpt>
      <trkpt lat="50.41859" lon="3.40405">
        <ele>17.236924</ele>
        <time>2021-11-04T13:34:40.621Z</time>
      </trkpt>
      <trkpt lat="50.4184" lon="3.40477">
        <ele>17.655628</ele>
        <time>2021-11-04T13:34:49.019Z</time>
      </trkpt>
      <trkpt lat="50.41828" lon="3.40522">
        <ele>17.914841</ele>
        <time>2021-11-04T13:34:54.875Z</time>
      </trkpt>
      <trkpt lat="50.41823" lon="3.4054">
        <ele>18.022605</ele>
        <time>2021-11-04T13:34:57.535Z</time>
      </trkpt>
      <trkpt lat="50.41809" lon="3.4059">
        <ele>18.315191</ele>
        <time>2021-11-04T13:35:04.667Z</time>
      </trkpt>
      <trkpt lat="50.41787" lon="3.40667">
        <ele>18.789801</ele>
        <time>2021-11-04T13:35:15.058Z</time>
      </trkpt>
      <trkpt lat="50.41778" lon="3.40688">
        <ele>18.936977</ele>
        <time>2021-11-04T13:35:18.902Z</time>
      </trkpt>
      <trkpt lat="50.41765" lon="3.40712">
        <ele>19.117075</ele>
        <time>2021-11-04T13:35:22.129Z</time>
      </trkpt>
      <trkpt lat="50.41764" lon="3.4072">
        <ele>19.162001</ele>
        <time>2021-11-04T13:35:23.492Z</time>
      </trkpt>
      <trkpt lat="50.41767" lon="3.40726">
        <ele>19.208315</ele>
        <time>2021-11-04T13:35:24.543Z</time>
      </trkpt>
      <trkpt lat="50.41772" lon="3.40734">
        <ele>19.276271</ele>
        <time>2021-11-04T13:35:25.991Z</time>
      </trkpt>
      <trkpt lat="50.41776" lon="3.40739">
        <ele>19.322899</ele>
        <time>2021-11-04T13:35:26.856Z</time>
      </trkpt>
      <trkpt lat="50.4178" lon="3.40743">
        <ele>19.360652</ele>
        <time>2021-11-04T13:35:27.540Z</time>
      </trkpt>
      <trkpt lat="50.41784" lon="3.40742">
        <ele>19.401267</ele>
        <time>2021-11-04T13:35:28.205Z</time>
      </trkpt>
      <trkpt lat="50.4182" lon="3.40737">
        <ele>19.722033</ele>
        <time>2021-11-04T13:35:34.683Z</time>
      </trkpt>
      <trkpt lat="50.41885" lon="3.40729">
        <ele>19.824832</ele>
        <time>2021-11-04T13:35:46.066Z</time>
      </trkpt>
      <trkpt lat="50.41922" lon="3.40725">
        <ele>19.50783</ele>
        <time>2021-11-04T13:35:51.343Z</time>
      </trkpt>
      <trkpt lat="50.41989" lon="3.40717">
        <ele>18.945086</ele>
        <time>2021-11-04T13:35:59.181Z</time>
      </trkpt>
      <trkpt lat="50.42035" lon="3.40708">
        <ele>18.553235</ele>
        <time>2021-11-04T13:36:04.474Z</time>
      </trkpt>
      <trkpt lat="50.42054" lon="3.40705">
        <ele>18.246216</ele>
        <time>2021-11-04T13:36:06.591Z</time>
      </trkpt>
      <trkpt lat="50.42084" lon="3.40701">
        <ele>17.759791</ele>
        <time>2021-11-04T13:36:09.898Z</time>
      </trkpt>
      <trkpt lat="50.42126" lon="3.40683">
        <ele>17.050976</ele>
        <time>2021-11-04T13:36:14.766Z</time>
      </trkpt>
      <trkpt lat="50.42166" lon="3.40669">
        <ele>16.386766</ele>
        <time>2021-11-04T13:36:19.366Z</time>
      </trkpt>
      <trkpt lat="50.42222" lon="3.40641">
        <ele>15.52406</ele>
        <time>2021-11-04T13:36:26.023Z</time>
      </trkpt>
      <trkpt lat="50.42321" lon="3.40582">
        <ele>14.711212</ele>
        <time>2021-11-04T13:36:39.074Z</time>
      </trkpt>
      <trkpt lat="50.42335" lon="3.40575">
        <ele>14.597898</ele>
        <time>2021-11-04T13:36:41.004Z</time>
      </trkpt>
      <trkpt lat="50.4236" lon="3.40564">
        <ele>14.399197</ele>
        <time>2021-11-04T13:36:44.631Z</time>
      </trkpt>
      <trkpt lat="50.42425" lon="3.40544">
        <ele>14.406046</ele>
        <time>2021-11-04T13:36:54.717Z</time>
      </trkpt>
      <trkpt lat="50.42457" lon="3.40539">
        <ele>14.532029</ele>
        <time>2021-11-04T13:36:59.824Z</time>
      </trkpt>
      <trkpt lat="50.42482" lon="3.40542">
        <ele>14.630539</ele>
        <time>2021-11-04T13:37:03.902Z</time>
      </trkpt>
      <trkpt lat="50.42521" lon="3.40552">
        <ele>14.786824</ele>
        <time>2021-11-04T13:37:10.900Z</time>
      </trkpt>
      <trkpt lat="50.42537" lon="3.40559">
        <ele>14.853405</ele>
        <time>2021-11-04T13:37:13.956Z</time>
      </trkpt>
      <trkpt lat="50.42553" lon="3.40572">
        <ele>14.924313</ele>
        <time>2021-11-04T13:37:17.204Z</time>
      </trkpt>
      <trkpt lat="50.42599" lon="3.40612">
        <ele>15.293536</ele>
        <time>2021-11-04T13:37:26.628Z</time>
      </trkpt>
      <trkpt lat="50.42661" lon="3.40702">
        <ele>15.910429</ele>
        <time>2021-11-04T13:37:41.296Z</time>
      </trkpt>
      <trkpt lat="50.42681" lon="3.40731">
        <ele>16.114812</ele>
        <time>2021-11-04T13:37:46.244Z</time>
      </trkpt>
      <trkpt lat="50.42693" lon="3.40753">
        <ele>16.247948</ele>
        <time>2021-11-04T13:37:49.482Z</time>
      </trkpt>
      <trkpt lat="50.42706" lon="3.40784">
        <ele>16.491152</ele>
        <time>2021-11-04T13:37:53.794Z</time>
      </trkpt>
      <trkpt lat="50.4275" lon="3.40908">
        <ele>17.44198</ele>
        <time>2021-11-04T13:38:10.218Z</time>
      </trkpt>
      <trkpt lat="50.42769" lon="3.4095">
        <ele>17.78325</ele>
        <time>2021-11-04T13:38:16.441Z</time>
      </trkpt>
      <trkpt lat="50.42774" lon="3.40963">
        <ele>17.891533</ele>
        <time>2021-11-04T13:38:18.516Z</time>
      </trkpt>
      <trkpt lat="50.42829" lon="3.41113">
        <ele>19.45588</ele>
        <time>2021-11-04T13:38:42.337Z</time>
      </trkpt>
      <trkpt lat="50.42832" lon="3.41132">
        <ele>19.644612</ele>
        <time>2021-11-04T13:38:45.059Z</time>
      </trkpt>
      <trkpt lat="50.42836" lon="3.41153">
        <ele>19.847995</ele>
        <time>2021-11-04T13:38:47.939Z</time>
      </trkpt>
      <trkpt lat="50.4284" lon="3.41173">
        <ele>20.056228</ele>
        <time>2021-11-04T13:38:50.818Z</time>
      </trkpt>
      <trkpt lat="50.4285" lon="3.41236">
        <ele>20.682699</ele>
        <time>2021-11-04T13:38:59.220Z</time>
      </trkpt>
      <trkpt lat="50.42873" lon="3.41356">
        <ele>21.215244</ele>
        <time>2021-11-04T13:39:14.660Z</time>
      </trkpt>
      <trkpt lat="50.42881" lon="3.41438">
        <ele>21.478402</ele>
        <time>2021-11-04T13:39:24.053Z</time>
      </trkpt>
      <trkpt lat="50.42885" lon="3.41471">
        <ele>21.584804</ele>
        <time>2021-11-04T13:39:27.316Z</time>
      </trkpt>
      <trkpt lat="50.4289" lon="3.41509">
        <ele>21.709027</ele>
        <time>2021-11-04T13:39:30.811Z</time>
      </trkpt>
      <trkpt lat="50.42906" lon="3.41606">
        <ele>21.101861</ele>
        <time>2021-11-04T13:39:39.046Z</time>
      </trkpt>
      <trkpt lat="50.42918" lon="3.41683">
        <ele>20.422658</ele>
        <time>2021-11-04T13:39:44.881Z</time>
      </trkpt>
      <trkpt lat="50.4294" lon="3.41779">
        <ele>19.543546</ele>
        <time>2021-11-04T13:39:52.084Z</time>
      </trkpt>
      <trkpt lat="50.42978" lon="3.4197">
        <ele>17.193377</ele>
        <time>2021-11-04T13:40:05.992Z</time>
      </trkpt>
      <trkpt lat="50.4301" lon="3.42135">
        <ele>15.545329</ele>
        <time>2021-11-04T13:40:18.409Z</time>
      </trkpt>
      <trkpt lat="50.4305" lon="3.42343">
        <ele>14.375165</ele>
        <time>2021-11-04T13:40:36.181Z</time>
      </trkpt>
      <trkpt lat="50.4305" lon="3.42343">
        <ele>14.375165</ele>
        <time>2021-11-04T13:40:36.183Z</time>
      </trkpt>
      <trkpt lat="50.43102" lon="3.42618">
        <ele>14.425465</ele>
        <time>2021-11-04T13:41:04.097Z</time>
      </trkpt>
      <trkpt lat="50.43131" lon="3.42753">
        <ele>14.585134</ele>
        <time>2021-11-04T13:41:18.534Z</time>
      </trkpt>
      <trkpt lat="50.43136" lon="3.42781">
        <ele>14.617685</ele>
        <time>2021-11-04T13:41:21.750Z</time>
      </trkpt>
      <trkpt lat="50.43131" lon="3.42797">
        <ele>14.637324</ele>
        <time>2021-11-04T13:41:23.846Z</time>
      </trkpt>
      <trkpt lat="50.43051" lon="3.43035">
        <ele>14.89317</ele>
        <time>2021-11-04T13:41:58.992Z</time>
      </trkpt>
      <trkpt lat="50.43034" lon="3.43431">
        <ele>15.435825</ele>
        <time>2021-11-04T13:42:52.677Z</time>
      </trkpt>
      <trkpt lat="50.43029" lon="3.43537">
        <ele>15.521322</ele>
        <time>2021-11-04T13:43:06.668Z</time>
      </trkpt>
      <trkpt lat="50.43028" lon="3.43555">
        <ele>15.536223</ele>
        <time>2021-11-04T13:43:08.943Z</time>
      </trkpt>
      <trkpt lat="50.43027" lon="3.43563">
        <ele>15.542595</ele>
        <time>2021-11-04T13:43:09.973Z</time>
      </trkpt>
      <trkpt lat="50.43024" lon="3.43609">
        <ele>15.579321</ele>
        <time>2021-11-04T13:43:16.059Z</time>
      </trkpt>
      <trkpt lat="50.43024" lon="3.43624">
        <ele>15.591451</ele>
        <time>2021-11-04T13:43:17.954Z</time>
      </trkpt>
      <trkpt lat="50.43041" lon="3.43734">
        <ele>15.846771</ele>
        <time>2021-11-04T13:43:33.087Z</time>
      </trkpt>
      <trkpt lat="50.43044" lon="3.43809">
        <ele>16.218417</ele>
        <time>2021-11-04T13:43:43.346Z</time>
      </trkpt>
      <trkpt lat="50.43052" lon="3.43828">
        <ele>16.328476</ele>
        <time>2021-11-04T13:43:46.643Z</time>
      </trkpt>
      <trkpt lat="50.43047" lon="3.43833">
        <ele>16.374465</ele>
        <time>2021-11-04T13:43:47.516Z</time>
      </trkpt>
      <trkpt lat="50.43013" lon="3.43873">
        <ele>16.701603</ele>
        <time>2021-11-04T13:43:55.131Z</time>
      </trkpt>
      <trkpt lat="50.43004" lon="3.43883">
        <ele>16.785621</ele>
        <time>2021-11-04T13:43:57.126Z</time>
      </trkpt>
      <trkpt lat="50.42995" lon="3.43894">
        <ele>16.877246</ele>
        <time>2021-11-04T13:44:00.379Z</time>
      </trkpt>
      <trkpt lat="50.42935" lon="3.43956">
        <ele>18.236353</ele>
        <time>2021-11-04T13:44:19.856Z</time>
      </trkpt>
      <trkpt lat="50.42927" lon="3.43966">
        <ele>18.489073</ele>
        <time>2021-11-04T13:44:22.652Z</time>
      </trkpt>
      <trkpt lat="50.42918" lon="3.43977">
        <ele>18.769036</ele>
        <time>2021-11-04T13:44:25.539Z</time>
      </trkpt>
      <trkpt lat="50.4291" lon="3.43985">
        <ele>18.98278</ele>
        <time>2021-11-04T13:44:27.824Z</time>
      </trkpt>
      <trkpt lat="50.42899" lon="3.44001">
        <ele>19.352107</ele>
        <time>2021-11-04T13:44:31.499Z</time>
      </trkpt>
      <trkpt lat="50.42896" lon="3.44005">
        <ele>19.448869</ele>
        <time>2021-11-04T13:44:32.674Z</time>
      </trkpt>
      <trkpt lat="50.42889" lon="3.44025">
        <ele>19.784843</ele>
        <time>2021-11-04T13:44:36.115Z</time>
      </trkpt>
      <trkpt lat="50.42889" lon="3.4403">
        <ele>19.867317</ele>
        <time>2021-11-04T13:44:37.144Z</time>
      </trkpt>
      <trkpt lat="50.42889" lon="3.44036">
        <ele>19.964958</ele>
        <time>2021-11-04T13:44:38.257Z</time>
      </trkpt>
      <trkpt lat="50.42891" lon="3.44047">
        <ele>20.136938</ele>
        <time>2021-11-04T13:44:39.865Z</time>
      </trkpt>
      <trkpt lat="50.42896" lon="3.44056">
        <ele>20.309823</ele>
        <time>2021-11-04T13:44:41.883Z</time>
      </trkpt>
      <trkpt lat="50.42901" lon="3.44061">
        <ele>20.441751</ele>
        <time>2021-11-04T13:44:43.219Z</time>
      </trkpt>
      <trkpt lat="50.42909" lon="3.44073">
        <ele>20.708146</ele>
        <time>2021-11-04T13:44:46.227Z</time>
      </trkpt>
      <trkpt lat="50.42913" lon="3.44084">
        <ele>20.91739</ele>
        <time>2021-11-04T13:44:48.456Z</time>
      </trkpt>
      <trkpt lat="50.42918" lon="3.44121">
        <ele>21.486996</ele>
        <time>2021-11-04T13:44:55.185Z</time>
      </trkpt>
      <trkpt lat="50.42919" lon="3.44197">
        <ele>22.64976</ele>
        <time>2021-11-04T13:45:08.722Z</time>
      </trkpt>
      <trkpt lat="50.42909" lon="3.44332">
        <ele>24.745741</ele>
        <time>2021-11-04T13:45:31.207Z</time>
      </trkpt>
      <trkpt lat="50.42907" lon="3.44348">
        <ele>24.993785</ele>
        <time>2021-11-04T13:45:33.976Z</time>
      </trkpt>
      <trkpt lat="50.42904" lon="3.44386">
        <ele>25.577304</ele>
        <time>2021-11-04T13:45:38.677Z</time>
      </trkpt>
      <trkpt lat="50.42907" lon="3.44391">
        <ele>25.671021</ele>
        <time>2021-11-04T13:45:40.145Z</time>
      </trkpt>
      <trkpt lat="50.42912" lon="3.44396">
        <ele>25.634339</ele>
        <time>2021-11-04T13:45:41.437Z</time>
      </trkpt>
      <trkpt lat="50.43297" lon="3.44785">
        <ele>22.56331</ele>
        <time>2021-11-04T13:46:39.088Z</time>
      </trkpt>
      <trkpt lat="50.43336" lon="3.44825">
        <ele>22.122464</ele>
        <time>2021-11-04T13:46:44.399Z</time>
      </trkpt>
      <trkpt lat="50.43407" lon="3.44895">
        <ele>22.129987</ele>
        <time>2021-11-04T13:46:54.809Z</time>
      </trkpt>
      <trkpt lat="50.43438" lon="3.44927">
        <ele>22.325991</ele>
        <time>2021-11-04T13:47:00.721Z</time>
      </trkpt>
      <trkpt lat="50.43489" lon="3.44978">
        <ele>22.637404</ele>
        <time>2021-11-04T13:47:12.411Z</time>
      </trkpt>
      <trkpt lat="50.43558" lon="3.45046">
        <ele>24.092624</ele>
        <time>2021-11-04T13:47:32.153Z</time>
      </trkpt>
      <trkpt lat="50.43655" lon="3.45143">
        <ele>26.865072</ele>
        <time>2021-11-04T13:48:01.904Z</time>
      </trkpt>
      <trkpt lat="50.43673" lon="3.4516">
        <ele>27.169255</ele>
        <time>2021-11-04T13:48:07.163Z</time>
      </trkpt>
      <trkpt lat="50.43679" lon="3.45166">
        <ele>27.19903</ele>
        <time>2021-11-04T13:48:08.705Z</time>
      </trkpt>
      <trkpt lat="50.4371" lon="3.45198">
        <ele>27.34751</ele>
        <time>2021-11-04T13:48:16.461Z</time>
      </trkpt>
      <trkpt lat="50.43716" lon="3.45204">
        <ele>27.377564</ele>
        <time>2021-11-04T13:48:17.749Z</time>
      </trkpt>
      <trkpt lat="50.43725" lon="3.45213">
        <ele>27.422574</ele>
        <time>2021-11-04T13:48:20.018Z</time>
      </trkpt>
      <trkpt lat="50.43833" lon="3.45322">
        <ele>27.400426</ele>
        <time>2021-11-04T13:48:37.083Z</time>
      </trkpt>
      <trkpt lat="50.4384" lon="3.4533">
        <ele>27.200685</ele>
        <time>2021-11-04T13:48:38.064Z</time>
      </trkpt>
      <trkpt lat="50.43867" lon="3.45356">
        <ele>26.495326</ele>
        <time>2021-11-04T13:48:41.530Z</time>
      </trkpt>
      <trkpt lat="50.43887" lon="3.45376">
        <ele>25.966879</ele>
        <time>2021-11-04T13:48:44.066Z</time>
      </trkpt>
      <trkpt lat="50.43973" lon="3.45461">
        <ele>23.651174</ele>
        <time>2021-11-04T13:48:54.524Z</time>
      </trkpt>
      <trkpt lat="50.44007" lon="3.45495">
        <ele>22.565705</ele>
        <time>2021-11-04T13:48:58.697Z</time>
      </trkpt>
      <trkpt lat="50.44022" lon="3.45509">
        <ele>22.101153</ele>
        <time>2021-11-04T13:49:00.454Z</time>
      </trkpt>
      <trkpt lat="50.4404" lon="3.45525">
        <ele>21.555777</ele>
        <time>2021-11-04T13:49:02.637Z</time>
      </trkpt>
      <trkpt lat="50.44047" lon="3.45531">
        <ele>21.343177</ele>
        <time>2021-11-04T13:49:03.439Z</time>
      </trkpt>
      <trkpt lat="50.44052" lon="3.45538">
        <ele>21.154788</ele>
        <time>2021-11-04T13:49:04.165Z</time>
      </trkpt>
      <trkpt lat="50.44052" lon="3.45538">
        <ele>21.152112</ele>
        <time>2021-11-04T13:49:04.168Z</time>
      </trkpt>
      <trkpt lat="50.44058" lon="3.45541">
        <ele>20.993938</ele>
        <time>2021-11-04T13:49:04.798Z</time>
      </trkpt>
      <trkpt lat="50.44064" lon="3.45544">
        <ele>20.816749</ele>
        <time>2021-11-04T13:49:05.500Z</time>
      </trkpt>
      <trkpt lat="50.44066" lon="3.45546">
        <ele>20.751403</ele>
        <time>2021-11-04T13:49:05.761Z</time>
      </trkpt>
      <trkpt lat="50.44068" lon="3.45548">
        <ele>20.685989</ele>
        <time>2021-11-04T13:49:06.031Z</time>
      </trkpt>
      <trkpt lat="50.44071" lon="3.45548">
        <ele>20.621405</ele>
        <time>2021-11-04T13:49:06.293Z</time>
      </trkpt>
      <trkpt lat="50.44073" lon="3.45554">
        <ele>20.503056</ele>
        <time>2021-11-04T13:49:06.748Z</time>
      </trkpt>
      <trkpt lat="50.44076" lon="3.45559">
        <ele>20.379238</ele>
        <time>2021-11-04T13:49:07.215Z</time>
      </trkpt>
      <trkpt lat="50.44076" lon="3.45559">
        <ele>20.379238</ele>
        <time>2021-11-04T13:49:07.218Z</time>
      </trkpt>
      <trkpt lat="50.44078" lon="3.45563">
        <ele>20.295429</ele>
        <time>2021-11-04T13:49:07.545Z</time>
      </trkpt>
      <trkpt lat="50.44085" lon="3.45569">
        <ele>20.094193</ele>
        <time>2021-11-04T13:49:08.331Z</time>
      </trkpt>
      <trkpt lat="50.44092" lon="3.45578">
        <ele>19.84884</ele>
        <time>2021-11-04T13:49:09.303Z</time>
      </trkpt>
      <trkpt lat="50.44123" lon="3.45609">
        <ele>18.931687</ele>
        <time>2021-11-04T13:49:13.166Z</time>
      </trkpt>
      <trkpt lat="50.44162" lon="3.4565">
        <ele>18.22656</ele>
        <time>2021-11-04T13:49:18.292Z</time>
      </trkpt>
      <trkpt lat="50.44248" lon="3.45733">
        <ele>16.743385</ele>
        <time>2021-11-04T13:49:30.066Z</time>
      </trkpt>
      <trkpt lat="50.44256" lon="3.45741">
        <ele>16.603995</ele>
        <time>2021-11-04T13:49:31.221Z</time>
      </trkpt>
      <trkpt lat="50.44257" lon="3.45742">
        <ele>16.574656</ele>
        <time>2021-11-04T13:49:31.449Z</time>
      </trkpt>
      <trkpt lat="50.4426" lon="3.45745">
        <ele>16.52676</ele>
        <time>2021-11-04T13:49:31.844Z</time>
      </trkpt>
      <trkpt lat="50.44385" lon="3.45872">
        <ele>16.070643</ele>
        <time>2021-11-04T13:49:51.660Z</time>
      </trkpt>
      <trkpt lat="50.4439" lon="3.45878">
        <ele>16.058007</ele>
        <time>2021-11-04T13:49:52.704Z</time>
      </trkpt>
      <trkpt lat="50.44392" lon="3.45879">
        <ele>16.053906</ele>
        <time>2021-11-04T13:49:53.033Z</time>
      </trkpt>
      <trkpt lat="50.44398" lon="3.45886">
        <ele>16.03873</ele>
        <time>2021-11-04T13:49:54.320Z</time>
      </trkpt>
      <trkpt lat="50.4448" lon="3.45969">
        <ele>16.58134</ele>
        <time>2021-11-04T13:50:12.164Z</time>
      </trkpt>
      <trkpt lat="50.44498" lon="3.45985">
        <ele>16.755003</ele>
        <time>2021-11-04T13:50:15.900Z</time>
      </trkpt>
      <trkpt lat="50.44499" lon="3.45987">
        <ele>16.773265</ele>
        <time>2021-11-04T13:50:16.410Z</time>
      </trkpt>
      <trkpt lat="50.445" lon="3.45987">
        <ele>16.778338</ele>
        <time>2021-11-04T13:50:16.543Z</time>
      </trkpt>
      <trkpt lat="50.44506" lon="3.45993">
        <ele>16.842689</ele>
        <time>2021-11-04T13:50:17.897Z</time>
      </trkpt>
      <trkpt lat="50.44537" lon="3.46025">
        <ele>17.158077</ele>
        <time>2021-11-04T13:50:24.749Z</time>
      </trkpt>
      <trkpt lat="50.44572" lon="3.4606">
        <ele>17.510874</ele>
        <time>2021-11-04T13:50:32.469Z</time>
      </trkpt>
      <trkpt lat="50.44576" lon="3.46064">
        <ele>17.541373</ele>
        <time>2021-11-04T13:50:33.381Z</time>
      </trkpt>
      <trkpt lat="50.44581" lon="3.4607">
        <ele>17.57329</ele>
        <time>2021-11-04T13:50:34.497Z</time>
      </trkpt>
      <trkpt lat="50.44582" lon="3.46075">
        <ele>17.593756</ele>
        <time>2021-11-04T13:50:35.208Z</time>
      </trkpt>
      <trkpt lat="50.44582" lon="3.46083">
        <ele>17.620099</ele>
        <time>2021-11-04T13:50:36.074Z</time>
      </trkpt>
      <trkpt lat="50.44581" lon="3.4609">
        <ele>17.64733</ele>
        <time>2021-11-04T13:50:37.140Z</time>
      </trkpt>
      <trkpt lat="50.44577" lon="3.46098">
        <ele>17.679078</ele>
        <time>2021-11-04T13:50:38.153Z</time>
      </trkpt>
      <trkpt lat="50.44577" lon="3.46103">
        <ele>17.695916</ele>
        <time>2021-11-04T13:50:38.697Z</time>
      </trkpt>
      <trkpt lat="50.44577" lon="3.46103">
        <ele>17.695916</ele>
        <time>2021-11-04T13:50:38.704Z</time>
      </trkpt>
      <trkpt lat="50.44577" lon="3.46106">
        <ele>17.707318</ele>
        <time>2021-11-04T13:50:39.084Z</time>
      </trkpt>
      <trkpt lat="50.44579" lon="3.46113">
        <ele>17.731125</ele>
        <time>2021-11-04T13:50:39.906Z</time>
      </trkpt>
      <trkpt lat="50.44582" lon="3.46119">
        <ele>17.758158</ele>
        <time>2021-11-04T13:50:40.848Z</time>
      </trkpt>
      <trkpt lat="50.44588" lon="3.46122">
        <ele>17.792295</ele>
        <time>2021-11-04T13:50:42.024Z</time>
      </trkpt>
      <trkpt lat="50.44612" lon="3.46086">
        <ele>17.969646</ele>
        <time>2021-11-04T13:50:47.979Z</time>
      </trkpt>
      <trkpt lat="50.4462" lon="3.46072">
        <ele>18.03635</ele>
        <time>2021-11-04T13:50:50.108Z</time>
      </trkpt>
      <trkpt lat="50.44633" lon="3.46054">
        <ele>18.125174</ele>
        <time>2021-11-04T13:50:52.848Z</time>
      </trkpt>
      <trkpt lat="50.44655" lon="3.4602">
        <ele>18.29174</ele>
        <time>2021-11-04T13:50:57.870Z</time>
      </trkpt>
      <trkpt lat="50.44663" lon="3.46005">
        <ele>18.358059</ele>
        <time>2021-11-04T13:50:59.843Z</time>
      </trkpt>
      <trkpt lat="50.44667" lon="3.45993">
        <ele>18.407374</ele>
        <time>2021-11-04T13:51:01.241Z</time>
      </trkpt>
      <trkpt lat="50.44712" lon="3.45709">
        <ele>18.230419</ele>
        <time>2021-11-04T13:51:27.728Z</time>
      </trkpt>
      <trkpt lat="50.44714" lon="3.45691">
        <ele>18.205912</ele>
        <time>2021-11-04T13:51:29.281Z</time>
      </trkpt>
      <trkpt lat="50.44714" lon="3.45674">
        <ele>18.160077</ele>
        <time>2021-11-04T13:51:30.848Z</time>
      </trkpt>
      <trkpt lat="50.44711" lon="3.45637">
        <ele>18.061639</ele>
        <time>2021-11-04T13:51:34.104Z</time>
      </trkpt>
      <trkpt lat="50.44677" lon="3.45503">
        <ele>17.682967</ele>
        <time>2021-11-04T13:51:46.509Z</time>
      </trkpt>
      <trkpt lat="50.44672" lon="3.45464">
        <ele>17.577229</ele>
        <time>2021-11-04T13:51:49.897Z</time>
      </trkpt>
      <trkpt lat="50.44677" lon="3.45429">
        <ele>17.484154</ele>
        <time>2021-11-04T13:51:52.883Z</time>
      </trkpt>
      <trkpt lat="50.44718" lon="3.45255">
        <ele>16.787842</ele>
        <time>2021-11-04T13:52:08.200Z</time>
      </trkpt>
      <trkpt lat="50.44737" lon="3.45214">
        <ele>16.594567</ele>
        <time>2021-11-04T13:52:12.461Z</time>
      </trkpt>
      <trkpt lat="50.44746" lon="3.45199">
        <ele>16.518559</ele>
        <time>2021-11-04T13:52:14.021Z</time>
      </trkpt>
      <trkpt lat="50.44752" lon="3.4519">
        <ele>16.469716</ele>
        <time>2021-11-04T13:52:15.155Z</time>
      </trkpt>
      <trkpt lat="50.44761" lon="3.45171">
        <ele>16.386134</ele>
        <time>2021-11-04T13:52:17.205Z</time>
      </trkpt>
      <trkpt lat="50.44775" lon="3.45127">
        <ele>16.2384</ele>
        <time>2021-11-04T13:52:21.361Z</time>
      </trkpt>
      <trkpt lat="50.44777" lon="3.45124">
        <ele>16.226975</ele>
        <time>2021-11-04T13:52:21.699Z</time>
      </trkpt>
      <trkpt lat="50.44783" lon="3.45112">
        <ele>16.180966</ele>
        <time>2021-11-04T13:52:22.923Z</time>
      </trkpt>
      <trkpt lat="50.44789" lon="3.45112">
        <ele>16.153805</ele>
        <time>2021-11-04T13:52:23.666Z</time>
      </trkpt>
      <trkpt lat="50.44796" lon="3.45117">
        <ele>16.12004</ele>
        <time>2021-11-04T13:52:24.675Z</time>
      </trkpt>
      <trkpt lat="50.44799" lon="3.45121">
        <ele>16.099055</ele>
        <time>2021-11-04T13:52:25.316Z</time>
      </trkpt>
      <trkpt lat="50.44815" lon="3.45146">
        <ele>15.994267</ele>
        <time>2021-11-04T13:52:28.241Z</time>
      </trkpt>
      <trkpt lat="50.44827" lon="3.45163">
        <ele>15.918985</ele>
        <time>2021-11-04T13:52:30.514Z</time>
      </trkpt>
      <trkpt lat="50.44838" lon="3.45177">
        <ele>15.853312</ele>
        <time>2021-11-04T13:52:32.371Z</time>
      </trkpt>
      <trkpt lat="50.44874" lon="3.45212">
        <ele>15.652504</ele>
        <time>2021-11-04T13:52:38.188Z</time>
      </trkpt>
      <trkpt lat="50.44968" lon="3.45253">
        <ele>15.27432</ele>
        <time>2021-11-04T13:52:51.463Z</time>
      </trkpt>
      <trkpt lat="50.45" lon="3.45261">
        <ele>15.15295</ele>
        <time>2021-11-04T13:52:55.921Z</time>
      </trkpt>
      <trkpt lat="50.4502" lon="3.45275">
        <ele>15.072686</ele>
        <time>2021-11-04T13:52:58.835Z</time>
      </trkpt>
      <trkpt lat="50.45026" lon="3.45283">
        <ele>15.041023</ele>
        <time>2021-11-04T13:52:59.961Z</time>
      </trkpt>
      <trkpt lat="50.4503" lon="3.45288">
        <ele>15.023704</ele>
        <time>2021-11-04T13:53:00.586Z</time>
      </trkpt>
      <trkpt lat="50.45031" lon="3.45294">
        <ele>15.008627</ele>
        <time>2021-11-04T13:53:01.112Z</time>
      </trkpt>
      <trkpt lat="50.45047" lon="3.45312">
        <ele>14.936495</ele>
        <time>2021-11-04T13:53:03.712Z</time>
      </trkpt>
      <trkpt lat="50.45051" lon="3.45313">
        <ele>14.921539</ele>
        <time>2021-11-04T13:53:04.236Z</time>
      </trkpt>
      <trkpt lat="50.45054" lon="3.45312">
        <ele>14.910318</ele>
        <time>2021-11-04T13:53:04.645Z</time>
      </trkpt>
      <trkpt lat="50.45065" lon="3.45304">
        <ele>14.859236</ele>
        <time>2021-11-04T13:53:06.248Z</time>
      </trkpt>
      <trkpt lat="50.45067" lon="3.45301">
        <ele>14.84598</ele>
        <time>2021-11-04T13:53:06.660Z</time>
      </trkpt>
      <trkpt lat="50.45069" lon="3.45296">
        <ele>14.829168</ele>
        <time>2021-11-04T13:53:07.160Z</time>
      </trkpt>
      <trkpt lat="50.45072" lon="3.45279">
        <ele>14.778872</ele>
        <time>2021-11-04T13:53:08.702Z</time>
      </trkpt>
      <trkpt lat="50.45072" lon="3.45273">
        <ele>14.762028</ele>
        <time>2021-11-04T13:53:09.203Z</time>
      </trkpt>
      <trkpt lat="50.45074" lon="3.45264">
        <ele>14.736428</ele>
        <time>2021-11-04T13:53:09.977Z</time>
      </trkpt>
      <trkpt lat="50.45079" lon="3.45253">
        <ele>14.697334</ele>
        <time>2021-11-04T13:53:11.147Z</time>
      </trkpt>
      <trkpt lat="50.45094" lon="3.45228">
        <ele>14.602114</ele>
        <time>2021-11-04T13:53:14.014Z</time>
      </trkpt>
      <trkpt lat="50.4514" lon="3.45176">
        <ele>14.352517</ele>
        <time>2021-11-04T13:53:21.543Z</time>
      </trkpt>
      <trkpt lat="50.45175" lon="3.45126">
        <ele>14.146566</ele>
        <time>2021-11-04T13:53:27.873Z</time>
      </trkpt>
      <trkpt lat="50.45211" lon="3.45045">
        <ele>14.162193</ele>
        <time>2021-11-04T13:53:36.616Z</time>
      </trkpt>
      <trkpt lat="50.45225" lon="3.45004">
        <ele>14.192792</ele>
        <time>2021-11-04T13:53:40.803Z</time>
      </trkpt>
      <trkpt lat="50.45312" lon="3.44685">
        <ele>14.863442</ele>
        <time>2021-11-04T13:54:17.105Z</time>
      </trkpt>
      <trkpt lat="50.45327" lon="3.44629">
        <ele>15.044499</ele>
        <time>2021-11-04T13:54:24.208Z</time>
      </trkpt>
      <trkpt lat="50.45366" lon="3.4448">
        <ele>15.289534</ele>
        <time>2021-11-04T13:54:40.869Z</time>
      </trkpt>
      <trkpt lat="50.45379" lon="3.44451">
        <ele>15.334989</ele>
        <time>2021-11-04T13:54:44.390Z</time>
      </trkpt>
      <trkpt lat="50.45394" lon="3.44419">
        <ele>15.384428</ele>
        <time>2021-11-04T13:54:48.172Z</time>
      </trkpt>
      <trkpt lat="50.45398" lon="3.44411">
        <ele>15.396993</ele>
        <time>2021-11-04T13:54:49.122Z</time>
      </trkpt>
      <trkpt lat="50.45401" lon="3.4441">
        <ele>15.40459</ele>
        <time>2021-11-04T13:54:49.723Z</time>
      </trkpt>
      <trkpt lat="50.45405" lon="3.44408">
        <ele>15.412926</ele>
        <time>2021-11-04T13:54:50.413Z</time>
      </trkpt>
      <trkpt lat="50.45408" lon="3.44406">
        <ele>15.418497</ele>
        <time>2021-11-04T13:54:50.812Z</time>
      </trkpt>
      <trkpt lat="50.45412" lon="3.44401">
        <ele>15.429819</ele>
        <time>2021-11-04T13:54:51.660Z</time>
      </trkpt>
      <trkpt lat="50.45417" lon="3.44391">
        <ele>15.44486</ele>
        <time>2021-11-04T13:54:52.760Z</time>
      </trkpt>
      <trkpt lat="50.45418" lon="3.44382">
        <ele>15.45685</ele>
        <time>2021-11-04T13:54:53.611Z</time>
      </trkpt>
      <trkpt lat="50.45416" lon="3.44361">
        <ele>15.47588</ele>
        <time>2021-11-04T13:54:55.708Z</time>
      </trkpt>
      <trkpt lat="50.45412" lon="3.44353">
        <ele>15.475799</ele>
        <time>2021-11-04T13:54:56.523Z</time>
      </trkpt>
      <trkpt lat="50.45414" lon="3.44324">
        <ele>15.475539</ele>
        <time>2021-11-04T13:54:59.171Z</time>
      </trkpt>
      <trkpt lat="50.45422" lon="3.44278">
        <ele>15.47513</ele>
        <time>2021-11-04T13:55:03.321Z</time>
      </trkpt>
      <trkpt lat="50.45496" lon="3.44019">
        <ele>15.60623</ele>
        <time>2021-11-04T13:55:30.481Z</time>
      </trkpt>
      <trkpt lat="50.45557" lon="3.43795">
        <ele>15.828821</ele>
        <time>2021-11-04T13:55:55.683Z</time>
      </trkpt>
      <trkpt lat="50.45569" lon="3.4376">
        <ele>15.79865</ele>
        <time>2021-11-04T13:55:59.532Z</time>
      </trkpt>
      <trkpt lat="50.45577" lon="3.43737">
        <ele>15.778472</ele>
        <time>2021-11-04T13:56:01.985Z</time>
      </trkpt>
      <trkpt lat="50.45581" lon="3.43737">
        <ele>15.773187</ele>
        <time>2021-11-04T13:56:02.626Z</time>
      </trkpt>
      <trkpt lat="50.45584" lon="3.43736">
        <ele>15.770259</ele>
        <time>2021-11-04T13:56:02.991Z</time>
      </trkpt>
      <trkpt lat="50.45587" lon="3.43739">
        <ele>15.765545</ele>
        <time>2021-11-04T13:56:03.611Z</time>
      </trkpt>
      <trkpt lat="50.45592" lon="3.43745">
        <ele>15.758187</ele>
        <time>2021-11-04T13:56:04.487Z</time>
      </trkpt>
      <trkpt lat="50.45597" lon="3.43755">
        <ele>15.748285</ele>
        <time>2021-11-04T13:56:05.709Z</time>
      </trkpt>
      <trkpt lat="50.45599" lon="3.4377">
        <ele>15.736652</ele>
        <time>2021-11-04T13:56:07.016Z</time>
      </trkpt>
      <trkpt lat="50.45606" lon="3.43809">
        <ele>15.705796</ele>
        <time>2021-11-04T13:56:10.622Z</time>
      </trkpt>
      <trkpt lat="50.45643" lon="3.43918">
        <ele>15.427696</ele>
        <time>2021-11-04T13:56:20.839Z</time>
      </trkpt>
      <trkpt lat="50.45723" lon="3.44091">
        <ele>14.576373</ele>
        <time>2021-11-04T13:56:38.365Z</time>
      </trkpt>
      <trkpt lat="50.45739" lon="3.44125">
        <ele>14.502602</ele>
        <time>2021-11-04T13:56:41.871Z</time>
      </trkpt>
      <trkpt lat="50.45755" lon="3.44154">
        <ele>14.46437</ele>
        <time>2021-11-04T13:56:45.050Z</time>
      </trkpt>
      <trkpt lat="50.4576" lon="3.44163">
        <ele>14.450895</ele>
        <time>2021-11-04T13:56:46.199Z</time>
      </trkpt>
      <trkpt lat="50.45772" lon="3.44169">
        <ele>14.431787</ele>
        <time>2021-11-04T13:56:47.810Z</time>
      </trkpt>
      <trkpt lat="50.45782" lon="3.44176">
        <ele>14.413491</ele>
        <time>2021-11-04T13:56:49.409Z</time>
      </trkpt>
      <trkpt lat="50.45792" lon="3.44185">
        <ele>14.39544</ele>
        <time>2021-11-04T13:56:51.007Z</time>
      </trkpt>
      <trkpt lat="50.45827" lon="3.44242">
        <ele>14.315783</ele>
        <time>2021-11-04T13:56:58.380Z</time>
      </trkpt>
      <trkpt lat="50.45851" lon="3.44292">
        <ele>14.251603</ele>
        <time>2021-11-04T13:57:04.729Z</time>
      </trkpt>
      <trkpt lat="50.45866" lon="3.44325">
        <ele>14.318771</ele>
        <time>2021-11-04T13:57:08.840Z</time>
      </trkpt>
      <trkpt lat="50.4588" lon="3.44345">
        <ele>14.376731</ele>
        <time>2021-11-04T13:57:11.894Z</time>
      </trkpt>
      <trkpt lat="50.45898" lon="3.44372">
        <ele>14.454404</ele>
        <time>2021-11-04T13:57:15.940Z</time>
      </trkpt>
      <trkpt lat="50.45909" lon="3.44388">
        <ele>14.49948</ele>
        <time>2021-11-04T13:57:18.374Z</time>
      </trkpt>
      <trkpt lat="50.45955" lon="3.4443">
        <ele>14.661866</ele>
        <time>2021-11-04T13:57:26.939Z</time>
      </trkpt>
      <trkpt lat="50.46141" lon="3.44582">
        <ele>15.104265</ele>
        <time>2021-11-04T13:58:00.200Z</time>
      </trkpt>
      <trkpt lat="50.46228" lon="3.44659">
        <ele>14.914957</ele>
        <time>2021-11-04T13:58:14.491Z</time>
      </trkpt>
      <trkpt lat="50.46294" lon="3.44747">
        <ele>14.695296</ele>
        <time>2021-11-04T13:58:26.161Z</time>
      </trkpt>
      <trkpt lat="50.46322" lon="3.4481">
        <ele>14.515468</ele>
        <time>2021-11-04T13:58:32.721Z</time>
      </trkpt>
      <trkpt lat="50.46356" lon="3.44902">
        <ele>14.252637</ele>
        <time>2021-11-04T13:58:41.747Z</time>
      </trkpt>
      <trkpt lat="50.46456" lon="3.45094">
        <ele>13.931208</ele>
        <time>2021-11-04T13:59:03.478Z</time>
      </trkpt>
      <trkpt lat="50.46527" lon="3.45171">
        <ele>13.887465</ele>
        <time>2021-11-04T13:59:16.594Z</time>
      </trkpt>
      <trkpt lat="50.4656" lon="3.45215">
        <ele>14.260254</ele>
        <time>2021-11-04T13:59:23.456Z</time>
      </trkpt>
      <trkpt lat="50.4658" lon="3.45245">
        <ele>14.555924</ele>
        <time>2021-11-04T13:59:28.475Z</time>
      </trkpt>
      <trkpt lat="50.46587" lon="3.45258">
        <ele>14.669999</ele>
        <time>2021-11-04T13:59:30.327Z</time>
      </trkpt>
      <trkpt lat="50.46588" lon="3.45263">
        <ele>14.703331</ele>
        <time>2021-11-04T13:59:30.907Z</time>
      </trkpt>
      <trkpt lat="50.46592" lon="3.4527">
        <ele>14.769578</ele>
        <time>2021-11-04T13:59:32.258Z</time>
      </trkpt>
      <trkpt lat="50.46594" lon="3.45272">
        <ele>14.802322</ele>
        <time>2021-11-04T13:59:32.872Z</time>
      </trkpt>
      <trkpt lat="50.466" lon="3.45278">
        <ele>14.872908</ele>
        <time>2021-11-04T13:59:34.083Z</time>
      </trkpt>
      <trkpt lat="50.46603" lon="3.45282">
        <ele>14.912762</ele>
        <time>2021-11-04T13:59:34.745Z</time>
      </trkpt>
      <trkpt lat="50.46611" lon="3.453">
        <ele>15.059572</ele>
        <time>2021-11-04T13:59:37.259Z</time>
      </trkpt>
      <trkpt lat="50.46617" lon="3.45316">
        <ele>15.190025</ele>
        <time>2021-11-04T13:59:39.995Z</time>
      </trkpt>
      <trkpt lat="50.46665" lon="3.45387">
        <ele>15.925229</ele>
        <time>2021-11-04T13:59:54.058Z</time>
      </trkpt>
      <trkpt lat="50.46666" lon="3.45387">
        <ele>15.936516</ele>
        <time>2021-11-04T13:59:54.420Z</time>
      </trkpt>
      <trkpt lat="50.46673" lon="3.45396">
        <ele>16.075479</ele>
        <time>2021-11-04T13:59:56.430Z</time>
      </trkpt>
      <trkpt lat="50.46689" lon="3.45418">
        <ele>16.392219</ele>
        <time>2021-11-04T14:00:01.058Z</time>
      </trkpt>
      <trkpt lat="50.46717" lon="3.45443">
        <ele>16.872077</ele>
        <time>2021-11-04T14:00:08.016Z</time>
      </trkpt>
      <trkpt lat="50.46717" lon="3.45443">
        <ele>16.882819</ele>
        <time>2021-11-04T14:00:08.211Z</time>
      </trkpt>
      <trkpt lat="50.46726" lon="3.4545">
        <ele>17.032023</ele>
        <time>2021-11-04T14:00:10.791Z</time>
      </trkpt>
      <trkpt lat="50.46726" lon="3.45457">
        <ele>17.100877</ele>
        <time>2021-11-04T14:00:11.860Z</time>
      </trkpt>
      <trkpt lat="50.46728" lon="3.45469">
        <ele>17.226888</ele>
        <time>2021-11-04T14:00:13.144Z</time>
      </trkpt>
      <trkpt lat="50.46732" lon="3.4548">
        <ele>17.34395</ele>
        <time>2021-11-04T14:00:14.722Z</time>
      </trkpt>
      <trkpt lat="50.46736" lon="3.45503">
        <ele>17.578601</ele>
        <time>2021-11-04T14:00:18.445Z</time>
      </trkpt>
      <trkpt lat="50.46742" lon="3.45535">
        <ele>17.900164</ele>
        <time>2021-11-04T14:00:22.328Z</time>
      </trkpt>
      <trkpt lat="50.46746" lon="3.45554">
        <ele>18.09221</ele>
        <time>2021-11-04T14:00:25.202Z</time>
      </trkpt>
      <trkpt lat="50.46752" lon="3.45577">
        <ele>18.320005</ele>
        <time>2021-11-04T14:00:27.971Z</time>
      </trkpt>
      <trkpt lat="50.46756" lon="3.45588">
        <ele>18.444898</ele>
        <time>2021-11-04T14:00:29.578Z</time>
      </trkpt>
      <trkpt lat="50.46759" lon="3.45596">
        <ele>18.499653</ele>
        <time>2021-11-04T14:00:30.966Z</time>
      </trkpt>
      <trkpt lat="50.46766" lon="3.45612">
        <ele>18.504705</ele>
        <time>2021-11-04T14:00:33.501Z</time>
      </trkpt>
      <trkpt lat="50.46771" lon="3.45621">
        <ele>18.507899</ele>
        <time>2021-11-04T14:00:34.534Z</time>
      </trkpt>
      <trkpt lat="50.46786" lon="3.45654">
        <ele>18.518374</ele>
        <time>2021-11-04T14:00:39.438Z</time>
      </trkpt>
      <trkpt lat="50.46864" lon="3.45759">
        <ele>18.560472</ele>
        <time>2021-11-04T14:00:54.169Z</time>
      </trkpt>
      <trkpt lat="50.46912" lon="3.45839">
        <ele>18.2271</ele>
        <time>2021-11-04T14:01:02.797Z</time>
      </trkpt>
      <trkpt lat="50.46949" lon="3.45908">
        <ele>17.745102</ele>
        <time>2021-11-04T14:01:09.824Z</time>
      </trkpt>
      <trkpt lat="50.46982" lon="3.45983">
        <ele>17.258615</ele>
        <time>2021-11-04T14:01:17.094Z</time>
      </trkpt>
      <trkpt lat="50.46982" lon="3.45984">
        <ele>17.253811</ele>
        <time>2021-11-04T14:01:17.144Z</time>
      </trkpt>
      <trkpt lat="50.46983" lon="3.45999">
        <ele>17.176707</ele>
        <time>2021-11-04T14:01:18.265Z</time>
      </trkpt>
      <trkpt lat="50.46985" lon="3.46041">
        <ele>16.990486</ele>
        <time>2021-11-04T14:01:21.644Z</time>
      </trkpt>
      <trkpt lat="50.46974" lon="3.46142">
        <ele>16.631302</ele>
        <time>2021-11-04T14:01:30.123Z</time>
      </trkpt>
      <trkpt lat="50.46976" lon="3.4622">
        <ele>16.361488</ele>
        <time>2021-11-04T14:01:36.608Z</time>
      </trkpt>
      <trkpt lat="50.46964" lon="3.46296">
        <ele>16.088964</ele>
        <time>2021-11-04T14:01:43.507Z</time>
      </trkpt>
      <trkpt lat="50.46964" lon="3.46306">
        <ele>16.069473</ele>
        <time>2021-11-04T14:01:44.308Z</time>
      </trkpt>
      <trkpt lat="50.46966" lon="3.46311">
        <ele>16.061672</ele>
        <time>2021-11-04T14:01:45.113Z</time>
      </trkpt>
      <trkpt lat="50.46975" lon="3.46326">
        <ele>16.036128</ele>
        <time>2021-11-04T14:01:46.811Z</time>
      </trkpt>
      <trkpt lat="50.47006" lon="3.46371">
        <ele>15.953799</ele>
        <time>2021-11-04T14:01:52.587Z</time>
      </trkpt>
      <trkpt lat="50.47015" lon="3.46388">
        <ele>15.92684</ele>
        <time>2021-11-04T14:01:54.451Z</time>
      </trkpt>
      <trkpt lat="50.47019" lon="3.46397">
        <ele>15.913505</ele>
        <time>2021-11-04T14:01:55.635Z</time>
      </trkpt>
      <trkpt lat="50.47023" lon="3.46407">
        <ele>15.897764</ele>
        <time>2021-11-04T14:01:56.628Z</time>
      </trkpt>
      <trkpt lat="50.47035" lon="3.46455">
        <ele>15.834356</ele>
        <time>2021-11-04T14:02:01.348Z</time>
      </trkpt>
      <trkpt lat="50.47039" lon="3.46496">
        <ele>15.783115</ele>
        <time>2021-11-04T14:02:05.237Z</time>
      </trkpt>
      <trkpt lat="50.4703" lon="3.46565">
        <ele>15.743389</ele>
        <time>2021-11-04T14:02:11.961Z</time>
      </trkpt>
      <trkpt lat="50.47022" lon="3.46585">
        <ele>15.75893</ele>
        <time>2021-11-04T14:02:13.998Z</time>
      </trkpt>
      <trkpt lat="50.47005" lon="3.46627">
        <ele>15.791888</ele>
        <time>2021-11-04T14:02:18.528Z</time>
      </trkpt>
      <trkpt lat="50.47001" lon="3.46643">
        <ele>15.803413</ele>
        <time>2021-11-04T14:02:20.210Z</time>
      </trkpt>
      <trkpt lat="50.46998" lon="3.46655">
        <ele>15.811903</ele>
        <time>2021-11-04T14:02:21.484Z</time>
      </trkpt>
      <trkpt lat="50.46992" lon="3.46685">
        <ele>15.83297</ele>
        <time>2021-11-04T14:02:24.399Z</time>
      </trkpt>
      <trkpt lat="50.4699" lon="3.46702">
        <ele>15.844116</ele>
        <time>2021-11-04T14:02:26.131Z</time>
      </trkpt>
      <trkpt lat="50.46998" lon="3.46746">
        <ele>15.874279</ele>
        <time>2021-11-04T14:02:30.533Z</time>
      </trkpt>
      <trkpt lat="50.47061" lon="3.4688">
        <ele>16.232504</ele>
        <time>2021-11-04T14:02:48.003Z</time>
      </trkpt>
      <trkpt lat="50.47076" lon="3.46911">
        <ele>16.351376</ele>
        <time>2021-11-04T14:02:52.202Z</time>
      </trkpt>
      <trkpt lat="50.47091" lon="3.46943">
        <ele>16.46886</ele>
        <time>2021-11-04T14:02:56.384Z</time>
      </trkpt>
      <trkpt lat="50.47137" lon="3.4704">
        <ele>16.866599</ele>
        <time>2021-11-04T14:03:09.577Z</time>
      </trkpt>
      <trkpt lat="50.47168" lon="3.47074">
        <ele>17.131106</ele>
        <time>2021-11-04T14:03:16.304Z</time>
      </trkpt>
      <trkpt lat="50.47184" lon="3.4708">
        <ele>17.245353</ele>
        <time>2021-11-04T14:03:19.276Z</time>
      </trkpt>
      <trkpt lat="50.47429" lon="3.47073">
        <ele>18.840541</ele>
        <time>2021-11-04T14:04:02.555Z</time>
      </trkpt>
      <trkpt lat="50.4744" lon="3.47076">
        <ele>18.912054</ele>
        <time>2021-11-04T14:04:04.633Z</time>
      </trkpt>
      <trkpt lat="50.47455" lon="3.47084">
        <ele>19.007957</ele>
        <time>2021-11-04T14:04:06.931Z</time>
      </trkpt>
      <trkpt lat="50.4747" lon="3.47098">
        <ele>19.118466</ele>
        <time>2021-11-04T14:04:09.955Z</time>
      </trkpt>
      <trkpt lat="50.47477" lon="3.47108">
        <ele>19.149498</ele>
        <time>2021-11-04T14:04:11.372Z</time>
      </trkpt>
      <trkpt lat="50.47595" lon="3.47271">
        <ele>19.6232</ele>
        <time>2021-11-04T14:04:35.825Z</time>
      </trkpt>
      <trkpt lat="50.47607" lon="3.47289">
        <ele>19.685545</ele>
        <time>2021-11-04T14:04:38.656Z</time>
      </trkpt>
      <trkpt lat="50.47618" lon="3.47311">
        <ele>19.806276</ele>
        <time>2021-11-04T14:04:41.787Z</time>
      </trkpt>
      <trkpt lat="50.47665" lon="3.47414">
        <ele>20.351891</ele>
        <time>2021-11-04T14:04:55.969Z</time>
      </trkpt>
      <trkpt lat="50.47674" lon="3.47431">
        <ele>20.449779</ele>
        <time>2021-11-04T14:04:58.629Z</time>
      </trkpt>
      <trkpt lat="50.47694" lon="3.47463">
        <ele>20.64273</ele>
        <time>2021-11-04T14:05:03.793Z</time>
      </trkpt>
      <trkpt lat="50.47776" lon="3.47555">
        <ele>21.174478</ele>
        <time>2021-11-04T14:05:21.821Z</time>
      </trkpt>
      <trkpt lat="50.47855" lon="3.47679">
        <ele>21.676594</ele>
        <time>2021-11-04T14:05:39.808Z</time>
      </trkpt>
      <trkpt lat="50.47868" lon="3.47693">
        <ele>21.675341</ele>
        <time>2021-11-04T14:05:42.227Z</time>
      </trkpt>
      <trkpt lat="50.47884" lon="3.47699">
        <ele>21.651049</ele>
        <time>2021-11-04T14:05:44.642Z</time>
      </trkpt>
      <trkpt lat="50.4791" lon="3.47682">
        <ele>21.609634</ele>
        <time>2021-11-04T14:05:48.662Z</time>
      </trkpt>
      <trkpt lat="50.47984" lon="3.47587">
        <ele>21.46886</ele>
        <time>2021-11-04T14:06:02.005Z</time>
      </trkpt>
      <trkpt lat="50.48003" lon="3.47576">
        <ele>21.439657</ele>
        <time>2021-11-04T14:06:04.715Z</time>
      </trkpt>
      <trkpt lat="50.48115" lon="3.47588">
        <ele>21.059193</ele>
        <time>2021-11-04T14:06:20.287Z</time>
      </trkpt>
      <trkpt lat="50.48142" lon="3.47596">
        <ele>20.962435</ele>
        <time>2021-11-04T14:06:24.094Z</time>
      </trkpt>
      <trkpt lat="50.48177" lon="3.47618">
        <ele>20.827742</ele>
        <time>2021-11-04T14:06:29.171Z</time>
      </trkpt>
      <trkpt lat="50.48199" lon="3.4764">
        <ele>20.664867</ele>
        <time>2021-11-04T14:06:32.552Z</time>
      </trkpt>
      <trkpt lat="50.48208" lon="3.47651">
        <ele>20.578525</ele>
        <time>2021-11-04T14:06:34.055Z</time>
      </trkpt>
      <trkpt lat="50.48218" lon="3.47663">
        <ele>20.480549</ele>
        <time>2021-11-04T14:06:35.720Z</time>
      </trkpt>
      <trkpt lat="50.48224" lon="3.47669">
        <ele>20.425433</ele>
        <time>2021-11-04T14:06:36.578Z</time>
      </trkpt>
      <trkpt lat="50.48249" lon="3.47675">
        <ele>20.228083</ele>
        <time>2021-11-04T14:06:39.902Z</time>
      </trkpt>
      <trkpt lat="50.48285" lon="3.47677">
        <ele>19.945935</ele>
        <time>2021-11-04T14:06:44.489Z</time>
      </trkpt>
      <trkpt lat="50.48299" lon="3.47688">
        <ele>19.82797</ele>
        <time>2021-11-04T14:06:46.301Z</time>
      </trkpt>
      <trkpt lat="50.48378" lon="3.47911">
        <ele>18.578896</ele>
        <time>2021-11-04T14:07:06.289Z</time>
      </trkpt>
      <trkpt lat="50.48399" lon="3.47969">
        <ele>18.255611</ele>
        <time>2021-11-04T14:07:11.764Z</time>
      </trkpt>
      <trkpt lat="50.48411" lon="3.47976">
        <ele>18.157418</ele>
        <time>2021-11-04T14:07:13.504Z</time>
      </trkpt>
      <trkpt lat="50.48417" lon="3.47979">
        <ele>18.109875</ele>
        <time>2021-11-04T14:07:14.375Z</time>
      </trkpt>
      <trkpt lat="50.48424" lon="3.4796">
        <ele>18.019699</ele>
        <time>2021-11-04T14:07:16.180Z</time>
      </trkpt>
      <trkpt lat="50.48439" lon="3.47931">
        <ele>17.990582</ele>
        <time>2021-11-04T14:07:19.566Z</time>
      </trkpt>
      <trkpt lat="50.485" lon="3.47882">
        <ele>17.909877</ele>
        <time>2021-11-04T14:07:29.177Z</time>
      </trkpt>
      <trkpt lat="50.4856" lon="3.47846">
        <ele>17.83404</ele>
        <time>2021-11-04T14:07:39.052Z</time>
      </trkpt>
      <trkpt lat="50.48564" lon="3.47844">
        <ele>17.828296</ele>
        <time>2021-11-04T14:07:39.830Z</time>
      </trkpt>
      <trkpt lat="50.48665" lon="3.47798">
        <ele>17.737051</ele>
        <time>2021-11-04T14:07:55.537Z</time>
      </trkpt>
      <trkpt lat="50.48676" lon="3.47786">
        <ele>17.726338</ele>
        <time>2021-11-04T14:07:57.432Z</time>
      </trkpt>
      <trkpt lat="50.48683" lon="3.47766">
        <ele>17.71418</ele>
        <time>2021-11-04T14:07:59.454Z</time>
      </trkpt>
      <trkpt lat="50.48689" lon="3.47737">
        <ele>17.698869</ele>
        <time>2021-11-04T14:08:02.129Z</time>
      </trkpt>
      <trkpt lat="50.48701" lon="3.47672">
        <ele>17.663568</ele>
        <time>2021-11-04T14:08:08.147Z</time>
      </trkpt>
      <trkpt lat="50.48711" lon="3.47619">
        <ele>17.59117</ele>
        <time>2021-11-04T14:08:13.080Z</time>
      </trkpt>
      <trkpt lat="50.48723" lon="3.47576">
        <ele>17.528048</ele>
        <time>2021-11-04T14:08:17.378Z</time>
      </trkpt>
      <trkpt lat="50.48729" lon="3.47551">
        <ele>17.492528</ele>
        <time>2021-11-04T14:08:19.723Z</time>
      </trkpt>
      <trkpt lat="50.48729" lon="3.47551">
        <ele>17.492395</ele>
        <time>2021-11-04T14:08:19.727Z</time>
      </trkpt>
      <trkpt lat="50.48742" lon="3.47483">
        <ele>17.397183</ele>
        <time>2021-11-04T14:08:26.089Z</time>
      </trkpt>
      <trkpt lat="50.48743" lon="3.4748">
        <ele>17.393352</ele>
        <time>2021-11-04T14:08:26.326Z</time>
      </trkpt>
      <trkpt lat="50.48757" lon="3.47361">
        <ele>17.257404</ele>
        <time>2021-11-04T14:08:37.249Z</time>
      </trkpt>
      <trkpt lat="50.48793" lon="3.46933">
        <ele>16.868462</ele>
        <time>2021-11-04T14:09:16.962Z</time>
      </trkpt>
      <trkpt lat="50.48795" lon="3.4691">
        <ele>16.8416</ele>
        <time>2021-11-04T14:09:18.901Z</time>
      </trkpt>
      <trkpt lat="50.488" lon="3.46856">
        <ele>16.778168</ele>
        <time>2021-11-04T14:09:23.888Z</time>
      </trkpt>
      <trkpt lat="50.48807" lon="3.46816">
        <ele>16.674368</ele>
        <time>2021-11-04T14:09:27.595Z</time>
      </trkpt>
      <trkpt lat="50.4887" lon="3.46679">
        <ele>16.119704</ele>
        <time>2021-11-04T14:09:41.544Z</time>
      </trkpt>
      <trkpt lat="50.48873" lon="3.46674">
        <ele>16.096364</ele>
        <time>2021-11-04T14:09:42.273Z</time>
      </trkpt>
      <trkpt lat="50.48892" lon="3.46634">
        <ele>15.930425</ele>
        <time>2021-11-04T14:09:48.108Z</time>
      </trkpt>
      <trkpt lat="50.4891" lon="3.46609">
        <ele>15.816965</ele>
        <time>2021-11-04T14:09:52.592Z</time>
      </trkpt>
      <trkpt lat="50.48919" lon="3.46599">
        <ele>15.7863</ele>
        <time>2021-11-04T14:09:54.427Z</time>
      </trkpt>
      <trkpt lat="50.48946" lon="3.46572">
        <ele>15.693545</ele>
        <time>2021-11-04T14:10:00.305Z</time>
      </trkpt>
      <trkpt lat="50.49052" lon="3.46461">
        <ele>15.324112</ele>
        <time>2021-11-04T14:10:24.362Z</time>
      </trkpt>
      <trkpt lat="50.4911" lon="3.46408">
        <ele>15.900177</ele>
        <time>2021-11-04T14:10:39.154Z</time>
      </trkpt>
      <trkpt lat="50.49198" lon="3.463">
        <ele>16.97349</ele>
        <time>2021-11-04T14:11:07.568Z</time>
      </trkpt>
      <trkpt lat="50.49258" lon="3.4619">
        <ele>18.364224</ele>
        <time>2021-11-04T14:11:32.878Z</time>
      </trkpt>
      <trkpt lat="50.49302" lon="3.46091">
        <ele>19.56603</ele>
        <time>2021-11-04T14:11:54.018Z</time>
      </trkpt>
      <trkpt lat="50.49375" lon="3.45959">
        <ele>19.993641</ele>
        <time>2021-11-04T14:12:19.340Z</time>
      </trkpt>
      <trkpt lat="50.49387" lon="3.45927">
        <ele>20.033572</ele>
        <time>2021-11-04T14:12:24.014Z</time>
      </trkpt>
      <trkpt lat="50.49394" lon="3.45893">
        <ele>20.072508</ele>
        <time>2021-11-04T14:12:28.280Z</time>
      </trkpt>
      <trkpt lat="50.49409" lon="3.45833">
        <ele>20.124837</ele>
        <time>2021-11-04T14:12:35.676Z</time>
      </trkpt>
      <trkpt lat="50.49463" lon="3.45576">
        <ele>18.767657</ele>
        <time>2021-11-04T14:13:05.915Z</time>
      </trkpt>
      <trkpt lat="50.4949" lon="3.45459">
        <ele>18.59858</ele>
        <time>2021-11-04T14:13:21.125Z</time>
      </trkpt>
      <trkpt lat="50.49498" lon="3.45423">
        <ele>18.559136</ele>
        <time>2021-11-04T14:13:25.907Z</time>
      </trkpt>
      <trkpt lat="50.49517" lon="3.4538">
        <ele>18.504713</ele>
        <time>2021-11-04T14:13:32.769Z</time>
      </trkpt>
      <trkpt lat="50.4954" lon="3.45338">
        <ele>18.447667</ele>
        <time>2021-11-04T14:13:40.108Z</time>
      </trkpt>
      <trkpt lat="50.49561" lon="3.45307">
        <ele>18.391128</ele>
        <time>2021-11-04T14:13:45.983Z</time>
      </trkpt>
      <trkpt lat="50.49592" lon="3.45277">
        <ele>18.306531</ele>
        <time>2021-11-04T14:13:53.097Z</time>
      </trkpt>
      <trkpt lat="50.49624" lon="3.45256">
        <ele>18.227788</ele>
        <time>2021-11-04T14:13:59.596Z</time>
      </trkpt>
      <trkpt lat="50.49648" lon="3.45244">
        <ele>18.17017</ele>
        <time>2021-11-04T14:14:04.403Z</time>
      </trkpt>
      <trkpt lat="50.49723" lon="3.45207">
        <ele>18.005349</ele>
        <time>2021-11-04T14:14:15.318Z</time>
      </trkpt>
      <trkpt lat="50.49811" lon="3.4518">
        <ele>17.940695</ele>
        <time>2021-11-04T14:14:27.647Z</time>
      </trkpt>
      <trkpt lat="50.49879" lon="3.45144">
        <ele>17.889058</ele>
        <time>2021-11-04T14:14:39.023Z</time>
      </trkpt>
      <trkpt lat="50.49885" lon="3.4514">
        <ele>17.88476</ele>
        <time>2021-11-04T14:14:40.075Z</time>
      </trkpt>
      <trkpt lat="50.49899" lon="3.45131">
        <ele>17.864783</ele>
        <time>2021-11-04T14:14:42.441Z</time>
      </trkpt>
      <trkpt lat="50.49912" lon="3.45121">
        <ele>17.842758</ele>
        <time>2021-11-04T14:14:44.900Z</time>
      </trkpt>
      <trkpt lat="50.49924" lon="3.45113">
        <ele>17.824917</ele>
        <time>2021-11-04T14:14:46.924Z</time>
      </trkpt>
      <trkpt lat="50.49935" lon="3.45106">
        <ele>17.807355</ele>
        <time>2021-11-04T14:14:48.633Z</time>
      </trkpt>
      <trkpt lat="50.49943" lon="3.45125">
        <ele>17.785562</ele>
        <time>2021-11-04T14:14:50.840Z</time>
      </trkpt>
      <trkpt lat="50.49958" lon="3.45159">
        <ele>17.747529</ele>
        <time>2021-11-04T14:14:54.362Z</time>
      </trkpt>
      <trkpt lat="50.49974" lon="3.45177">
        <ele>17.718305</ele>
        <time>2021-11-04T14:14:57.026Z</time>
      </trkpt>
      <trkpt lat="50.49999" lon="3.45188">
        <ele>17.681738</ele>
        <time>2021-11-04T14:15:00.228Z</time>
      </trkpt>
      <trkpt lat="50.50005" lon="3.45189">
        <ele>17.672451</ele>
        <time>2021-11-04T14:15:01.166Z</time>
      </trkpt>
      <trkpt lat="50.50044" lon="3.45199">
        <ele>17.613556</ele>
        <time>2021-11-04T14:15:06.738Z</time>
      </trkpt>
      <trkpt lat="50.50051" lon="3.45202">
        <ele>17.601404</ele>
        <time>2021-11-04T14:15:07.734Z</time>
      </trkpt>
      <trkpt lat="50.50052" lon="3.45203">
        <ele>17.59853</ele>
        <time>2021-11-04T14:15:07.975Z</time>
      </trkpt>
      <trkpt lat="50.50084" lon="3.45223">
        <ele>17.538693</ele>
        <time>2021-11-04T14:15:13.205Z</time>
      </trkpt>
      <trkpt lat="50.50092" lon="3.45227">
        <ele>17.524035</ele>
        <time>2021-11-04T14:15:14.418Z</time>
      </trkpt>
      <trkpt lat="50.5013" lon="3.45249">
        <ele>17.454602</ele>
        <time>2021-11-04T14:15:19.902Z</time>
      </trkpt>
      <trkpt lat="50.50142" lon="3.45258">
        <ele>17.431733</ele>
        <time>2021-11-04T14:15:21.791Z</time>
      </trkpt>
      <trkpt lat="50.50193" lon="3.45294">
        <ele>17.334598</ele>
        <time>2021-11-04T14:15:29.338Z</time>
      </trkpt>
      <trkpt lat="50.50229" lon="3.45322">
        <ele>17.430256</ele>
        <time>2021-11-04T14:15:35.051Z</time>
      </trkpt>
      <trkpt lat="50.5031" lon="3.45386">
        <ele>17.872184</ele>
        <time>2021-11-04T14:15:51.499Z</time>
      </trkpt>
      <trkpt lat="50.50341" lon="3.45413">
        <ele>18.044462</ele>
        <time>2021-11-04T14:15:57.548Z</time>
      </trkpt>
      <trkpt lat="50.50355" lon="3.45425">
        <ele>18.122248</ele>
        <time>2021-11-04T14:16:00.162Z</time>
      </trkpt>
      <trkpt lat="50.50407" lon="3.45459">
        <ele>18.412968</ele>
        <time>2021-11-04T14:16:09.519Z</time>
      </trkpt>
      <trkpt lat="50.50416" lon="3.45464">
        <ele>18.465698</ele>
        <time>2021-11-04T14:16:11.173Z</time>
      </trkpt>
      <trkpt lat="50.50444" lon="3.45482">
        <ele>18.622966</ele>
        <time>2021-11-04T14:16:16.319Z</time>
      </trkpt>
      <trkpt lat="50.50447" lon="3.4549">
        <ele>18.65479</ele>
        <time>2021-11-04T14:16:17.321Z</time>
      </trkpt>
      <trkpt lat="50.50448" lon="3.45508">
        <ele>18.717144</ele>
        <time>2021-11-04T14:16:19.283Z</time>
      </trkpt>
      <trkpt lat="50.50443" lon="3.45552">
        <ele>18.865177</ele>
        <time>2021-11-04T14:16:24.332Z</time>
      </trkpt>
      <trkpt lat="50.50441" lon="3.45568">
        <ele>18.920076</ele>
        <time>2021-11-04T14:16:26.007Z</time>
      </trkpt>
      <trkpt lat="50.50441" lon="3.45573">
        <ele>18.937333</ele>
        <time>2021-11-04T14:16:26.537Z</time>
      </trkpt>
      <trkpt lat="50.5044" lon="3.45588">
        <ele>18.988987</ele>
        <time>2021-11-04T14:16:28.381Z</time>
      </trkpt>
      <trkpt lat="50.50437" lon="3.45631">
        <ele>19.134992</ele>
        <time>2021-11-04T14:16:32.698Z</time>
      </trkpt>
      <trkpt lat="50.50436" lon="3.45642">
        <ele>19.163991</ele>
        <time>2021-11-04T14:16:34.081Z</time>
      </trkpt>
      <trkpt lat="50.50433" lon="3.4572">
        <ele>19.36793</ele>
        <time>2021-11-04T14:16:42.070Z</time>
      </trkpt>
      <trkpt lat="50.50424" lon="3.45772">
        <ele>19.510495</ele>
        <time>2021-11-04T14:16:47.729Z</time>
      </trkpt>
      <trkpt lat="50.5041" lon="3.45851">
        <ele>19.725709</ele>
        <time>2021-11-04T14:16:56.283Z</time>
      </trkpt>
      <trkpt lat="50.50361" lon="3.46074">
        <ele>20.347571</ele>
        <time>2021-11-04T14:17:21.466Z</time>
      </trkpt>
      <trkpt lat="50.50345" lon="3.46155">
        <ele>20.570149</ele>
        <time>2021-11-04T14:17:30.296Z</time>
      </trkpt>
      <trkpt lat="50.50335" lon="3.46236">
        <ele>20.620235</ele>
        <time>2021-11-04T14:17:38.489Z</time>
      </trkpt>
      <trkpt lat="50.50325" lon="3.46304">
        <ele>20.620235</ele>
        <time>2021-11-04T14:17:45.340Z</time>
      </trkpt>
      <trkpt lat="50.50317" lon="3.46374">
        <ele>20.620235</ele>
        <time>2021-11-04T14:17:52.117Z</time>
      </trkpt>
      <trkpt lat="50.50313" lon="3.46411">
        <ele>20.620235</ele>
        <time>2021-11-04T14:17:55.450Z</time>
      </trkpt>
      <trkpt lat="50.50316" lon="3.46422">
        <ele>20.620235</ele>
        <time>2021-11-04T14:17:56.637Z</time>
      </trkpt>
      <trkpt lat="50.5034" lon="3.46438">
        <ele>20.620235</ele>
        <time>2021-11-04T14:18:00.332Z</time>
      </trkpt>
      <trkpt lat="50.50361" lon="3.46454">
        <ele>20.620235</ele>
        <time>2021-11-04T14:18:03.651Z</time>
      </trkpt>
      <trkpt lat="50.50362" lon="3.46434">
        <ele>20.620235</ele>
        <time>2021-11-04T14:18:17.525Z</time>
      </trkpt>
      <trkpt lat="50.50356" lon="3.46426">
        <ele>20.620235</ele>
        <time>2021-11-04T14:18:26.240Z</time>
      </trkpt>
      <trkpt lat="50.50347" lon="3.4642">
        <ele>20.620235</ele>
        <time>2021-11-04T14:18:36.535Z</time>
      </trkpt>
    </trkseg>
  </trk>
</gpx>